<?xml version="1.0" encoding="UTF-8" standalone="no" ?>
<gpx xmlns="http://www.topografix.com/GPX/1/1" xmlns:xsi="http://www.w3.org/2001/XMLSchema-instance" xsi:schemaLocation="http://www.topografix.com/GPX/1/1 http://www.topografix.com/GPX/1/1/gpx.xsd" version="1.1" creator="VisuGPX - https://www.visugpx.com">
  <metadata>
    <name>Saverne - Chateau du Haut-Barr</name>
    <desc><![CDATA[Sortie VTT du 05 juin 2010
14 Km]]></desc>
  </metadata>
  <trk>
    <name><![CDATA[Holux2010/06/05_13:46-2]]></name>
    <trkseg>
      <trkpt lat="48.73137" lon="7.35201">
        <ele>246.69548</ele>
        <time>2010-06-05T12:17:37Z</time>
      </trkpt>
      <trkpt lat="48.73147" lon="7.35198">
        <ele>246.816574</ele>
        <time>2010-06-05T12:17:43Z</time>
      </trkpt>
      <trkpt lat="48.73157" lon="7.35193">
        <ele>247.191574</ele>
        <time>2010-06-05T12:17:48Z</time>
      </trkpt>
      <trkpt lat="48.73162" lon="7.3518">
        <ele>248.35173</ele>
        <time>2010-06-05T12:17:52Z</time>
      </trkpt>
      <trkpt lat="48.73167" lon="7.35166">
        <ele>249.004074</ele>
        <time>2010-06-05T12:17:56Z</time>
      </trkpt>
      <trkpt lat="48.73172" lon="7.35154">
        <ele>247.800949</ele>
        <time>2010-06-05T12:18:01Z</time>
      </trkpt>
      <trkpt lat="48.73177" lon="7.35141">
        <ele>248.375168</ele>
        <time>2010-06-05T12:18:05Z</time>
      </trkpt>
      <trkpt lat="48.73186" lon="7.35133">
        <ele>248.804855</ele>
        <time>2010-06-05T12:18:09Z</time>
      </trkpt>
      <trkpt lat="48.73195" lon="7.35126">
        <ele>249.746262</ele>
        <time>2010-06-05T12:18:13Z</time>
      </trkpt>
      <trkpt lat="48.73206" lon="7.35125">
        <ele>250.613449</ele>
        <time>2010-06-05T12:18:18Z</time>
      </trkpt>
      <trkpt lat="48.73213" lon="7.35133">
        <ele>250.406418</ele>
        <time>2010-06-05T12:18:22Z</time>
      </trkpt>
      <trkpt lat="48.73222" lon="7.35131">
        <ele>250.484543</ele>
        <time>2010-06-05T12:18:26Z</time>
      </trkpt>
      <trkpt lat="48.73226" lon="7.35119">
        <ele>252.750168</ele>
        <time>2010-06-05T12:18:30Z</time>
      </trkpt>
      <trkpt lat="48.73229" lon="7.35106">
        <ele>254.347824</ele>
        <time>2010-06-05T12:18:34Z</time>
      </trkpt>
      <trkpt lat="48.73233" lon="7.35094">
        <ele>258.664398</ele>
        <time>2010-06-05T12:18:40Z</time>
      </trkpt>
      <trkpt lat="48.73239" lon="7.35078">
        <ele>256.820648</ele>
        <time>2010-06-05T12:18:44Z</time>
      </trkpt>
      <trkpt lat="48.73242" lon="7.35065">
        <ele>257.508148</ele>
        <time>2010-06-05T12:18:49Z</time>
      </trkpt>
      <trkpt lat="48.73247" lon="7.35049">
        <ele>257.969086</ele>
        <time>2010-06-05T12:18:55Z</time>
      </trkpt>
      <trkpt lat="48.7325" lon="7.35036">
        <ele>258.703461</ele>
        <time>2010-06-05T12:19:00Z</time>
      </trkpt>
      <trkpt lat="48.73255" lon="7.35023">
        <ele>258.523773</ele>
        <time>2010-06-05T12:19:05Z</time>
      </trkpt>
      <trkpt lat="48.7326" lon="7.35007">
        <ele>258.922211</ele>
        <time>2010-06-05T12:19:11Z</time>
      </trkpt>
      <trkpt lat="48.73264" lon="7.34993">
        <ele>259.406586</ele>
        <time>2010-06-05T12:19:17Z</time>
      </trkpt>
      <trkpt lat="48.73269" lon="7.34981">
        <ele>260.156586</ele>
        <time>2010-06-05T12:19:23Z</time>
      </trkpt>
      <trkpt lat="48.73273" lon="7.3497">
        <ele>263.687836</ele>
        <time>2010-06-05T12:19:29Z</time>
      </trkpt>
      <trkpt lat="48.73278" lon="7.34957">
        <ele>265.437836</ele>
        <time>2010-06-05T12:19:37Z</time>
      </trkpt>
      <trkpt lat="48.73282" lon="7.34943">
        <ele>266.469086</ele>
        <time>2010-06-05T12:19:46Z</time>
      </trkpt>
      <trkpt lat="48.73289" lon="7.34932">
        <ele>267.570648</ele>
        <time>2010-06-05T12:19:53Z</time>
      </trkpt>
      <trkpt lat="48.73297" lon="7.34922">
        <ele>268.187836</ele>
        <time>2010-06-05T12:19:59Z</time>
      </trkpt>
      <trkpt lat="48.73305" lon="7.3491">
        <ele>267.453461</ele>
        <time>2010-06-05T12:20:06Z</time>
      </trkpt>
      <trkpt lat="48.73312" lon="7.34901">
        <ele>266.976898</ele>
        <time>2010-06-05T12:20:10Z</time>
      </trkpt>
      <trkpt lat="48.7332" lon="7.3489">
        <ele>267.906586</ele>
        <time>2010-06-05T12:20:15Z</time>
      </trkpt>
      <trkpt lat="48.73325" lon="7.34877">
        <ele>268.750336</ele>
        <time>2010-06-05T12:20:21Z</time>
      </trkpt>
      <trkpt lat="48.73332" lon="7.34865">
        <ele>268.265961</ele>
        <time>2010-06-05T12:20:27Z</time>
      </trkpt>
      <trkpt lat="48.73335" lon="7.34852">
        <ele>268.140961</ele>
        <time>2010-06-05T12:20:33Z</time>
      </trkpt>
      <trkpt lat="48.7334" lon="7.34838">
        <ele>267.555023</ele>
        <time>2010-06-05T12:20:41Z</time>
      </trkpt>
      <trkpt lat="48.73339" lon="7.34823">
        <ele>267.195648</ele>
        <time>2010-06-05T12:20:49Z</time>
      </trkpt>
      <trkpt lat="48.73348" lon="7.34812">
        <ele>269.539398</ele>
        <time>2010-06-05T12:20:56Z</time>
      </trkpt>
      <trkpt lat="48.73357" lon="7.34813">
        <ele>273.047211</ele>
        <time>2010-06-05T12:21:02Z</time>
      </trkpt>
      <trkpt lat="48.73359" lon="7.348">
        <ele>274.359711</ele>
        <time>2010-06-05T12:21:24Z</time>
      </trkpt>
      <trkpt lat="48.73365" lon="7.34787">
        <ele>274.601898</ele>
        <time>2010-06-05T12:25:45Z</time>
      </trkpt>
      <trkpt lat="48.73358" lon="7.34773">
        <ele>275.898773</ele>
        <time>2010-06-05T12:25:49Z</time>
      </trkpt>
      <trkpt lat="48.73351" lon="7.34765">
        <ele>276.601898</ele>
        <time>2010-06-05T12:25:52Z</time>
      </trkpt>
      <trkpt lat="48.73343" lon="7.34753">
        <ele>277.008148</ele>
        <time>2010-06-05T12:25:58Z</time>
      </trkpt>
      <trkpt lat="48.73336" lon="7.34743">
        <ele>277.617523</ele>
        <time>2010-06-05T12:26:04Z</time>
      </trkpt>
      <trkpt lat="48.7333" lon="7.34731">
        <ele>279.055023</ele>
        <time>2010-06-05T12:26:09Z</time>
      </trkpt>
      <trkpt lat="48.73323" lon="7.34721">
        <ele>280.672211</ele>
        <time>2010-06-05T12:26:15Z</time>
      </trkpt>
      <trkpt lat="48.73315" lon="7.34712">
        <ele>282.359711</ele>
        <time>2010-06-05T12:26:21Z</time>
      </trkpt>
      <trkpt lat="48.73309" lon="7.34701">
        <ele>283.265961</ele>
        <time>2010-06-05T12:26:26Z</time>
      </trkpt>
      <trkpt lat="48.73302" lon="7.34692">
        <ele>285.351898</ele>
        <time>2010-06-05T12:26:32Z</time>
      </trkpt>
      <trkpt lat="48.73296" lon="7.3468">
        <ele>286.414398</ele>
        <time>2010-06-05T12:26:36Z</time>
      </trkpt>
      <trkpt lat="48.7329" lon="7.34666">
        <ele>288.773773</ele>
        <time>2010-06-05T12:26:40Z</time>
      </trkpt>
      <trkpt lat="48.73284" lon="7.34656">
        <ele>290.422211</ele>
        <time>2010-06-05T12:26:45Z</time>
      </trkpt>
      <trkpt lat="48.73278" lon="7.34645">
        <ele>293.976898</ele>
        <time>2010-06-05T12:26:51Z</time>
      </trkpt>
      <trkpt lat="48.73273" lon="7.34633">
        <ele>295.547211</ele>
        <time>2010-06-05T12:26:55Z</time>
      </trkpt>
      <trkpt lat="48.73267" lon="7.34623">
        <ele>292.734711</ele>
        <time>2010-06-05T12:27:01Z</time>
      </trkpt>
      <trkpt lat="48.73261" lon="7.34613">
        <ele>293.094086</ele>
        <time>2010-06-05T12:27:06Z</time>
      </trkpt>
      <trkpt lat="48.73254" lon="7.34602">
        <ele>293.344086</ele>
        <time>2010-06-05T12:27:11Z</time>
      </trkpt>
      <trkpt lat="48.73248" lon="7.3459">
        <ele>294.687836</ele>
        <time>2010-06-05T12:27:17Z</time>
      </trkpt>
      <trkpt lat="48.73242" lon="7.34579">
        <ele>294.578461</ele>
        <time>2010-06-05T12:27:23Z</time>
      </trkpt>
      <trkpt lat="48.73236" lon="7.34569">
        <ele>293.172211</ele>
        <time>2010-06-05T12:27:28Z</time>
      </trkpt>
      <trkpt lat="48.73229" lon="7.34557">
        <ele>293.773773</ele>
        <time>2010-06-05T12:27:33Z</time>
      </trkpt>
      <trkpt lat="48.73223" lon="7.34546">
        <ele>294.265961</ele>
        <time>2010-06-05T12:27:37Z</time>
      </trkpt>
      <trkpt lat="48.73216" lon="7.34536">
        <ele>293.937836</ele>
        <time>2010-06-05T12:27:42Z</time>
      </trkpt>
      <trkpt lat="48.7321" lon="7.34525">
        <ele>294.305023</ele>
        <time>2010-06-05T12:27:47Z</time>
      </trkpt>
      <trkpt lat="48.73204" lon="7.34516">
        <ele>294.156586</ele>
        <time>2010-06-05T12:27:52Z</time>
      </trkpt>
      <trkpt lat="48.73197" lon="7.34505">
        <ele>292.992523</ele>
        <time>2010-06-05T12:27:58Z</time>
      </trkpt>
      <trkpt lat="48.73191" lon="7.34494">
        <ele>293.297211</ele>
        <time>2010-06-05T12:28:03Z</time>
      </trkpt>
      <trkpt lat="48.73184" lon="7.34484">
        <ele>292.500336</ele>
        <time>2010-06-05T12:28:08Z</time>
      </trkpt>
      <trkpt lat="48.73177" lon="7.34474">
        <ele>292.367523</ele>
        <time>2010-06-05T12:28:14Z</time>
      </trkpt>
      <trkpt lat="48.73169" lon="7.34465">
        <ele>291.351898</ele>
        <time>2010-06-05T12:28:20Z</time>
      </trkpt>
      <trkpt lat="48.73162" lon="7.34454">
        <ele>291.640961</ele>
        <time>2010-06-05T12:28:26Z</time>
      </trkpt>
      <trkpt lat="48.73155" lon="7.34444">
        <ele>291.687836</ele>
        <time>2010-06-05T12:28:32Z</time>
      </trkpt>
      <trkpt lat="48.73147" lon="7.34434">
        <ele>292.203461</ele>
        <time>2010-06-05T12:28:38Z</time>
      </trkpt>
      <trkpt lat="48.73139" lon="7.34425">
        <ele>292.437836</ele>
        <time>2010-06-05T12:28:44Z</time>
      </trkpt>
      <trkpt lat="48.73131" lon="7.34414">
        <ele>295.555023</ele>
        <time>2010-06-05T12:28:50Z</time>
      </trkpt>
      <trkpt lat="48.73124" lon="7.34406">
        <ele>297.570648</ele>
        <time>2010-06-05T12:28:55Z</time>
      </trkpt>
      <trkpt lat="48.73117" lon="7.34397">
        <ele>300.015961</ele>
        <time>2010-06-05T12:29:00Z</time>
      </trkpt>
      <trkpt lat="48.7311" lon="7.34388">
        <ele>301.976898</ele>
        <time>2010-06-05T12:29:05Z</time>
      </trkpt>
      <trkpt lat="48.73103" lon="7.34375">
        <ele>301.398773</ele>
        <time>2010-06-05T12:29:11Z</time>
      </trkpt>
      <trkpt lat="48.73094" lon="7.34367">
        <ele>300.469086</ele>
        <time>2010-06-05T12:29:16Z</time>
      </trkpt>
      <trkpt lat="48.73087" lon="7.34359">
        <ele>299.367523</ele>
        <time>2010-06-05T12:29:23Z</time>
      </trkpt>
      <trkpt lat="48.73076" lon="7.34353">
        <ele>298.953461</ele>
        <time>2010-06-05T12:30:15Z</time>
      </trkpt>
      <trkpt lat="48.73071" lon="7.34339">
        <ele>298.969086</ele>
        <time>2010-06-05T12:30:21Z</time>
      </trkpt>
      <trkpt lat="48.73064" lon="7.34328">
        <ele>299.180023</ele>
        <time>2010-06-05T12:30:24Z</time>
      </trkpt>
      <trkpt lat="48.73056" lon="7.34316">
        <ele>297.383148</ele>
        <time>2010-06-05T12:30:28Z</time>
      </trkpt>
      <trkpt lat="48.7305" lon="7.34307">
        <ele>294.383148</ele>
        <time>2010-06-05T12:30:33Z</time>
      </trkpt>
      <trkpt lat="48.73041" lon="7.34304">
        <ele>292.789398</ele>
        <time>2010-06-05T12:30:36Z</time>
      </trkpt>
      <trkpt lat="48.73032" lon="7.34298">
        <ele>290.781586</ele>
        <time>2010-06-05T12:30:40Z</time>
      </trkpt>
      <trkpt lat="48.73021" lon="7.34292">
        <ele>286.976898</ele>
        <time>2010-06-05T12:30:46Z</time>
      </trkpt>
      <trkpt lat="48.73011" lon="7.34286">
        <ele>286.547211</ele>
        <time>2010-06-05T12:30:51Z</time>
      </trkpt>
      <trkpt lat="48.73002" lon="7.3428">
        <ele>286.601898</ele>
        <time>2010-06-05T12:30:55Z</time>
      </trkpt>
      <trkpt lat="48.72996" lon="7.34269">
        <ele>285.094086</ele>
        <time>2010-06-05T12:31:00Z</time>
      </trkpt>
      <trkpt lat="48.72989" lon="7.34259">
        <ele>283.445648</ele>
        <time>2010-06-05T12:31:06Z</time>
      </trkpt>
      <trkpt lat="48.72981" lon="7.34251">
        <ele>282.242523</ele>
        <time>2010-06-05T12:31:10Z</time>
      </trkpt>
      <trkpt lat="48.72973" lon="7.3424">
        <ele>284.578461</ele>
        <time>2010-06-05T12:31:16Z</time>
      </trkpt>
      <trkpt lat="48.72965" lon="7.34229">
        <ele>286.976898</ele>
        <time>2010-06-05T12:31:20Z</time>
      </trkpt>
      <trkpt lat="48.72961" lon="7.34215">
        <ele>285.617523</ele>
        <time>2010-06-05T12:31:24Z</time>
      </trkpt>
      <trkpt lat="48.72955" lon="7.34204">
        <ele>285.312836</ele>
        <time>2010-06-05T12:31:28Z</time>
      </trkpt>
      <trkpt lat="48.72946" lon="7.34194">
        <ele>287.250336</ele>
        <time>2010-06-05T12:31:34Z</time>
      </trkpt>
      <trkpt lat="48.7294" lon="7.34184">
        <ele>286.476898</ele>
        <time>2010-06-05T12:31:39Z</time>
      </trkpt>
      <trkpt lat="48.72934" lon="7.3417">
        <ele>285.555023</ele>
        <time>2010-06-05T12:31:43Z</time>
      </trkpt>
      <trkpt lat="48.72928" lon="7.34153">
        <ele>286.750336</ele>
        <time>2010-06-05T12:31:48Z</time>
      </trkpt>
      <trkpt lat="48.72922" lon="7.3414">
        <ele>286.547211</ele>
        <time>2010-06-05T12:31:53Z</time>
      </trkpt>
      <trkpt lat="48.72913" lon="7.3413">
        <ele>288.547211</ele>
        <time>2010-06-05T12:31:57Z</time>
      </trkpt>
      <trkpt lat="48.72907" lon="7.34119">
        <ele>290.133148</ele>
        <time>2010-06-05T12:32:01Z</time>
      </trkpt>
      <trkpt lat="48.72901" lon="7.34107">
        <ele>292.984711</ele>
        <time>2010-06-05T12:32:08Z</time>
      </trkpt>
      <trkpt lat="48.72897" lon="7.34095">
        <ele>296.758148</ele>
        <time>2010-06-05T12:32:25Z</time>
      </trkpt>
      <trkpt lat="48.72892" lon="7.34083">
        <ele>295.656586</ele>
        <time>2010-06-05T12:32:30Z</time>
      </trkpt>
      <trkpt lat="48.72888" lon="7.3407">
        <ele>296.570648</ele>
        <time>2010-06-05T12:32:35Z</time>
      </trkpt>
      <trkpt lat="48.72881" lon="7.34058">
        <ele>296.898773</ele>
        <time>2010-06-05T12:32:40Z</time>
      </trkpt>
      <trkpt lat="48.72873" lon="7.34046">
        <ele>295.859711</ele>
        <time>2010-06-05T12:32:46Z</time>
      </trkpt>
      <trkpt lat="48.72867" lon="7.34035">
        <ele>294.094086</ele>
        <time>2010-06-05T12:32:51Z</time>
      </trkpt>
      <trkpt lat="48.7286" lon="7.34024">
        <ele>292.562836</ele>
        <time>2010-06-05T12:32:57Z</time>
      </trkpt>
      <trkpt lat="48.72854" lon="7.34012">
        <ele>290.281586</ele>
        <time>2010-06-05T12:33:02Z</time>
      </trkpt>
      <trkpt lat="48.7285" lon="7.33995">
        <ele>288.523773</ele>
        <time>2010-06-05T12:33:06Z</time>
      </trkpt>
      <trkpt lat="48.72845" lon="7.33983">
        <ele>288.422211</ele>
        <time>2010-06-05T12:33:11Z</time>
      </trkpt>
      <trkpt lat="48.72838" lon="7.33969">
        <ele>288.320648</ele>
        <time>2010-06-05T12:33:16Z</time>
      </trkpt>
      <trkpt lat="48.72834" lon="7.33955">
        <ele>288.242523</ele>
        <time>2010-06-05T12:33:21Z</time>
      </trkpt>
      <trkpt lat="48.72829" lon="7.33942">
        <ele>288.969086</ele>
        <time>2010-06-05T12:33:25Z</time>
      </trkpt>
      <trkpt lat="48.72829" lon="7.33927">
        <ele>288.930023</ele>
        <time>2010-06-05T12:33:28Z</time>
      </trkpt>
      <trkpt lat="48.72826" lon="7.33911">
        <ele>289.820648</ele>
        <time>2010-06-05T12:33:32Z</time>
      </trkpt>
      <trkpt lat="48.72823" lon="7.33896">
        <ele>290.898773</ele>
        <time>2010-06-05T12:33:36Z</time>
      </trkpt>
      <trkpt lat="48.7282" lon="7.3388">
        <ele>292.562836</ele>
        <time>2010-06-05T12:33:40Z</time>
      </trkpt>
      <trkpt lat="48.72817" lon="7.33865">
        <ele>294.086273</ele>
        <time>2010-06-05T12:33:43Z</time>
      </trkpt>
      <trkpt lat="48.72813" lon="7.33851">
        <ele>294.898773</ele>
        <time>2010-06-05T12:33:47Z</time>
      </trkpt>
      <trkpt lat="48.72809" lon="7.33837">
        <ele>296.648773</ele>
        <time>2010-06-05T12:33:51Z</time>
      </trkpt>
      <trkpt lat="48.72804" lon="7.33822">
        <ele>300.086273</ele>
        <time>2010-06-05T12:33:56Z</time>
      </trkpt>
      <trkpt lat="48.728" lon="7.33808">
        <ele>299.289398</ele>
        <time>2010-06-05T12:34:00Z</time>
      </trkpt>
      <trkpt lat="48.72795" lon="7.33792">
        <ele>301.344086</ele>
        <time>2010-06-05T12:34:02Z</time>
      </trkpt>
      <trkpt lat="48.72788" lon="7.33778">
        <ele>305.445648</ele>
        <time>2010-06-05T12:34:06Z</time>
      </trkpt>
      <trkpt lat="48.72782" lon="7.33767">
        <ele>308.601898</ele>
        <time>2010-06-05T12:34:10Z</time>
      </trkpt>
      <trkpt lat="48.72778" lon="7.33755">
        <ele>310.461273</ele>
        <time>2010-06-05T12:34:15Z</time>
      </trkpt>
      <trkpt lat="48.72773" lon="7.33742">
        <ele>313.234711</ele>
        <time>2010-06-05T12:34:19Z</time>
      </trkpt>
      <trkpt lat="48.72767" lon="7.33729">
        <ele>315.281586</ele>
        <time>2010-06-05T12:34:23Z</time>
      </trkpt>
      <trkpt lat="48.7276" lon="7.33717">
        <ele>316.031586</ele>
        <time>2010-06-05T12:34:27Z</time>
      </trkpt>
      <trkpt lat="48.72753" lon="7.33705">
        <ele>317.578461</ele>
        <time>2010-06-05T12:34:31Z</time>
      </trkpt>
      <trkpt lat="48.72746" lon="7.33696">
        <ele>318.172211</ele>
        <time>2010-06-05T12:34:35Z</time>
      </trkpt>
      <trkpt lat="48.72739" lon="7.33686">
        <ele>319.109711</ele>
        <time>2010-06-05T12:34:39Z</time>
      </trkpt>
      <trkpt lat="48.72733" lon="7.33676">
        <ele>318.578461</ele>
        <time>2010-06-05T12:34:43Z</time>
      </trkpt>
      <trkpt lat="48.72725" lon="7.33667">
        <ele>318.515961</ele>
        <time>2010-06-05T12:34:47Z</time>
      </trkpt>
      <trkpt lat="48.72718" lon="7.33657">
        <ele>319.570648</ele>
        <time>2010-06-05T12:34:51Z</time>
      </trkpt>
      <trkpt lat="48.72709" lon="7.33647">
        <ele>320.976898</ele>
        <time>2010-06-05T12:34:55Z</time>
      </trkpt>
      <trkpt lat="48.72703" lon="7.33637">
        <ele>321.500336</ele>
        <time>2010-06-05T12:34:59Z</time>
      </trkpt>
      <trkpt lat="48.72696" lon="7.33626">
        <ele>322.617523</ele>
        <time>2010-06-05T12:35:03Z</time>
      </trkpt>
      <trkpt lat="48.72689" lon="7.33618">
        <ele>322.797211</ele>
        <time>2010-06-05T12:35:07Z</time>
      </trkpt>
      <trkpt lat="48.72682" lon="7.33608">
        <ele>323.523773</ele>
        <time>2010-06-05T12:35:12Z</time>
      </trkpt>
      <trkpt lat="48.72674" lon="7.336">
        <ele>325.211273</ele>
        <time>2010-06-05T12:35:16Z</time>
      </trkpt>
      <trkpt lat="48.72665" lon="7.33591">
        <ele>325.781586</ele>
        <time>2010-06-05T12:35:21Z</time>
      </trkpt>
      <trkpt lat="48.72658" lon="7.33582">
        <ele>326.211273</ele>
        <time>2010-06-05T12:35:25Z</time>
      </trkpt>
      <trkpt lat="48.72649" lon="7.33573">
        <ele>326.539398</ele>
        <time>2010-06-05T12:35:30Z</time>
      </trkpt>
      <trkpt lat="48.72641" lon="7.33564">
        <ele>326.805023</ele>
        <time>2010-06-05T12:35:35Z</time>
      </trkpt>
      <trkpt lat="48.72632" lon="7.33557">
        <ele>327.000336</ele>
        <time>2010-06-05T12:35:40Z</time>
      </trkpt>
      <trkpt lat="48.72625" lon="7.33548">
        <ele>326.008148</ele>
        <time>2010-06-05T12:35:45Z</time>
      </trkpt>
      <trkpt lat="48.72617" lon="7.3354">
        <ele>325.437836</ele>
        <time>2010-06-05T12:35:52Z</time>
      </trkpt>
      <trkpt lat="48.72609" lon="7.33533">
        <ele>325.992523</ele>
        <time>2010-06-05T12:35:58Z</time>
      </trkpt>
      <trkpt lat="48.72599" lon="7.33523">
        <ele>326.117523</ele>
        <time>2010-06-05T12:36:02Z</time>
      </trkpt>
      <trkpt lat="48.7259" lon="7.33515">
        <ele>325.476898</ele>
        <time>2010-06-05T12:36:06Z</time>
      </trkpt>
      <trkpt lat="48.72581" lon="7.33506">
        <ele>325.640961</ele>
        <time>2010-06-05T12:36:10Z</time>
      </trkpt>
      <trkpt lat="48.72571" lon="7.33499">
        <ele>325.187836</ele>
        <time>2010-06-05T12:36:15Z</time>
      </trkpt>
      <trkpt lat="48.72563" lon="7.33493">
        <ele>325.836273</ele>
        <time>2010-06-05T12:36:19Z</time>
      </trkpt>
      <trkpt lat="48.72554" lon="7.33486">
        <ele>326.484711</ele>
        <time>2010-06-05T12:36:23Z</time>
      </trkpt>
      <trkpt lat="48.72545" lon="7.3348">
        <ele>327.312836</ele>
        <time>2010-06-05T12:36:27Z</time>
      </trkpt>
      <trkpt lat="48.72536" lon="7.33472">
        <ele>327.750336</ele>
        <time>2010-06-05T12:36:32Z</time>
      </trkpt>
      <trkpt lat="48.72527" lon="7.33465">
        <ele>326.101898</ele>
        <time>2010-06-05T12:36:37Z</time>
      </trkpt>
      <trkpt lat="48.72518" lon="7.33461">
        <ele>326.711273</ele>
        <time>2010-06-05T12:36:41Z</time>
      </trkpt>
      <trkpt lat="48.72509" lon="7.33458">
        <ele>327.180023</ele>
        <time>2010-06-05T12:36:45Z</time>
      </trkpt>
      <trkpt lat="48.72501" lon="7.3345">
        <ele>326.508148</ele>
        <time>2010-06-05T12:36:50Z</time>
      </trkpt>
      <trkpt lat="48.72492" lon="7.33443">
        <ele>325.164398</ele>
        <time>2010-06-05T12:36:55Z</time>
      </trkpt>
      <trkpt lat="48.72482" lon="7.33437">
        <ele>325.015961</ele>
        <time>2010-06-05T12:36:59Z</time>
      </trkpt>
      <trkpt lat="48.72472" lon="7.33431">
        <ele>326.273773</ele>
        <time>2010-06-05T12:37:03Z</time>
      </trkpt>
      <trkpt lat="48.72463" lon="7.33425">
        <ele>324.851898</ele>
        <time>2010-06-05T12:37:09Z</time>
      </trkpt>
      <trkpt lat="48.72454" lon="7.33417">
        <ele>323.547211</ele>
        <time>2010-06-05T12:37:15Z</time>
      </trkpt>
      <trkpt lat="48.72446" lon="7.3341">
        <ele>322.945648</ele>
        <time>2010-06-05T12:37:20Z</time>
      </trkpt>
      <trkpt lat="48.72438" lon="7.33403">
        <ele>322.578461</ele>
        <time>2010-06-05T12:37:24Z</time>
      </trkpt>
      <trkpt lat="48.72429" lon="7.33397">
        <ele>321.601898</ele>
        <time>2010-06-05T12:37:30Z</time>
      </trkpt>
      <trkpt lat="48.7242" lon="7.33388">
        <ele>321.922211</ele>
        <time>2010-06-05T12:37:36Z</time>
      </trkpt>
      <trkpt lat="48.72413" lon="7.3338">
        <ele>322.148773</ele>
        <time>2010-06-05T12:37:41Z</time>
      </trkpt>
      <trkpt lat="48.72405" lon="7.3337">
        <ele>322.758148</ele>
        <time>2010-06-05T12:37:45Z</time>
      </trkpt>
      <trkpt lat="48.72396" lon="7.33362">
        <ele>321.562836</ele>
        <time>2010-06-05T12:37:49Z</time>
      </trkpt>
      <trkpt lat="48.72389" lon="7.33352">
        <ele>324.273773</ele>
        <time>2010-06-05T12:37:54Z</time>
      </trkpt>
      <trkpt lat="48.72381" lon="7.33344">
        <ele>324.289398</ele>
        <time>2010-06-05T12:37:58Z</time>
      </trkpt>
      <trkpt lat="48.72372" lon="7.33336">
        <ele>323.078461</ele>
        <time>2010-06-05T12:38:03Z</time>
      </trkpt>
      <trkpt lat="48.72364" lon="7.33328">
        <ele>322.195648</ele>
        <time>2010-06-05T12:38:07Z</time>
      </trkpt>
      <trkpt lat="48.72355" lon="7.33321">
        <ele>320.945648</ele>
        <time>2010-06-05T12:38:11Z</time>
      </trkpt>
      <trkpt lat="48.72345" lon="7.33309">
        <ele>326.234711</ele>
        <time>2010-06-05T12:38:17Z</time>
      </trkpt>
      <trkpt lat="48.72338" lon="7.333">
        <ele>325.726898</ele>
        <time>2010-06-05T12:38:21Z</time>
      </trkpt>
      <trkpt lat="48.72329" lon="7.33294">
        <ele>327.164398</ele>
        <time>2010-06-05T12:38:25Z</time>
      </trkpt>
      <trkpt lat="48.72321" lon="7.33285">
        <ele>326.859711</ele>
        <time>2010-06-05T12:38:29Z</time>
      </trkpt>
      <trkpt lat="48.72311" lon="7.33283">
        <ele>327.953461</ele>
        <time>2010-06-05T12:38:33Z</time>
      </trkpt>
      <trkpt lat="48.72301" lon="7.33276">
        <ele>329.898773</ele>
        <time>2010-06-05T12:38:38Z</time>
      </trkpt>
      <trkpt lat="48.72292" lon="7.33271">
        <ele>331.805023</ele>
        <time>2010-06-05T12:38:42Z</time>
      </trkpt>
      <trkpt lat="48.72282" lon="7.3327">
        <ele>331.437836</ele>
        <time>2010-06-05T12:38:47Z</time>
      </trkpt>
      <trkpt lat="48.72273" lon="7.33269">
        <ele>330.039398</ele>
        <time>2010-06-05T12:38:51Z</time>
      </trkpt>
      <trkpt lat="48.72264" lon="7.33265">
        <ele>326.430023</ele>
        <time>2010-06-05T12:38:54Z</time>
      </trkpt>
      <trkpt lat="48.72255" lon="7.33263">
        <ele>322.844086</ele>
        <time>2010-06-05T12:38:59Z</time>
      </trkpt>
      <trkpt lat="48.72244" lon="7.3326">
        <ele>321.219086</ele>
        <time>2010-06-05T12:39:04Z</time>
      </trkpt>
      <trkpt lat="48.72235" lon="7.33256">
        <ele>317.594086</ele>
        <time>2010-06-05T12:39:09Z</time>
      </trkpt>
      <trkpt lat="48.72226" lon="7.33255">
        <ele>314.914398</ele>
        <time>2010-06-05T12:39:13Z</time>
      </trkpt>
      <trkpt lat="48.72216" lon="7.33254">
        <ele>311.414398</ele>
        <time>2010-06-05T12:39:20Z</time>
      </trkpt>
      <trkpt lat="48.72207" lon="7.33252">
        <ele>308.086273</ele>
        <time>2010-06-05T12:39:25Z</time>
      </trkpt>
      <trkpt lat="48.72199" lon="7.33248">
        <ele>304.320648</ele>
        <time>2010-06-05T12:39:30Z</time>
      </trkpt>
      <trkpt lat="48.72191" lon="7.33242">
        <ele>301.617523</ele>
        <time>2010-06-05T12:39:35Z</time>
      </trkpt>
      <trkpt lat="48.72182" lon="7.33234">
        <ele>303.172211</ele>
        <time>2010-06-05T12:39:40Z</time>
      </trkpt>
      <trkpt lat="48.72177" lon="7.33227">
        <ele>310.133148</ele>
        <time>2010-06-05T12:42:04Z</time>
      </trkpt>
      <trkpt lat="48.7217" lon="7.33218">
        <ele>311.039398</ele>
        <time>2010-06-05T12:42:08Z</time>
      </trkpt>
      <trkpt lat="48.72161" lon="7.3321">
        <ele>309.844086</ele>
        <time>2010-06-05T12:42:11Z</time>
      </trkpt>
      <trkpt lat="48.72155" lon="7.33198">
        <ele>309.820648</ele>
        <time>2010-06-05T12:42:13Z</time>
      </trkpt>
      <trkpt lat="48.72149" lon="7.33183">
        <ele>312.383148</ele>
        <time>2010-06-05T12:42:16Z</time>
      </trkpt>
      <trkpt lat="48.72144" lon="7.33166">
        <ele>316.390961</ele>
        <time>2010-06-05T12:42:19Z</time>
      </trkpt>
      <trkpt lat="48.72141" lon="7.33151">
        <ele>319.031586</ele>
        <time>2010-06-05T12:42:23Z</time>
      </trkpt>
      <trkpt lat="48.72139" lon="7.33137">
        <ele>321.336273</ele>
        <time>2010-06-05T12:42:27Z</time>
      </trkpt>
      <trkpt lat="48.72139" lon="7.33122">
        <ele>324.172211</ele>
        <time>2010-06-05T12:42:31Z</time>
      </trkpt>
      <trkpt lat="48.72138" lon="7.33107">
        <ele>326.469086</ele>
        <time>2010-06-05T12:42:35Z</time>
      </trkpt>
      <trkpt lat="48.72137" lon="7.33091">
        <ele>328.015961</ele>
        <time>2010-06-05T12:42:40Z</time>
      </trkpt>
      <trkpt lat="48.72135" lon="7.33078">
        <ele>331.719086</ele>
        <time>2010-06-05T12:42:44Z</time>
      </trkpt>
      <trkpt lat="48.72134" lon="7.33064">
        <ele>334.219086</ele>
        <time>2010-06-05T12:42:48Z</time>
      </trkpt>
      <trkpt lat="48.72134" lon="7.33049">
        <ele>336.601898</ele>
        <time>2010-06-05T12:42:53Z</time>
      </trkpt>
      <trkpt lat="48.72136" lon="7.33035">
        <ele>337.539398</ele>
        <time>2010-06-05T12:42:58Z</time>
      </trkpt>
      <trkpt lat="48.72136" lon="7.33019">
        <ele>338.383148</ele>
        <time>2010-06-05T12:43:03Z</time>
      </trkpt>
      <trkpt lat="48.72137" lon="7.33003">
        <ele>338.812836</ele>
        <time>2010-06-05T12:43:08Z</time>
      </trkpt>
      <trkpt lat="48.72137" lon="7.32986">
        <ele>339.680023</ele>
        <time>2010-06-05T12:43:13Z</time>
      </trkpt>
      <trkpt lat="48.72138" lon="7.32972">
        <ele>339.586273</ele>
        <time>2010-06-05T12:43:17Z</time>
      </trkpt>
      <trkpt lat="48.72137" lon="7.32957">
        <ele>341.281586</ele>
        <time>2010-06-05T12:43:22Z</time>
      </trkpt>
      <trkpt lat="48.72139" lon="7.32941">
        <ele>342.914398</ele>
        <time>2010-06-05T12:43:27Z</time>
      </trkpt>
      <trkpt lat="48.72136" lon="7.32926">
        <ele>344.390961</ele>
        <time>2010-06-05T12:43:31Z</time>
      </trkpt>
      <trkpt lat="48.72138" lon="7.3291">
        <ele>344.336273</ele>
        <time>2010-06-05T12:43:35Z</time>
      </trkpt>
      <trkpt lat="48.72141" lon="7.32893">
        <ele>346.180023</ele>
        <time>2010-06-05T12:43:39Z</time>
      </trkpt>
      <trkpt lat="48.72139" lon="7.32876">
        <ele>346.773773</ele>
        <time>2010-06-05T12:43:43Z</time>
      </trkpt>
      <trkpt lat="48.72138" lon="7.3286">
        <ele>347.883148</ele>
        <time>2010-06-05T12:43:46Z</time>
      </trkpt>
      <trkpt lat="48.72137" lon="7.32843">
        <ele>347.015961</ele>
        <time>2010-06-05T12:43:50Z</time>
      </trkpt>
      <trkpt lat="48.72133" lon="7.3283">
        <ele>346.937836</ele>
        <time>2010-06-05T12:43:53Z</time>
      </trkpt>
      <trkpt lat="48.72129" lon="7.32814">
        <ele>345.562836</ele>
        <time>2010-06-05T12:43:57Z</time>
      </trkpt>
      <trkpt lat="48.72125" lon="7.328">
        <ele>345.195648</ele>
        <time>2010-06-05T12:44:00Z</time>
      </trkpt>
      <trkpt lat="48.72118" lon="7.32786">
        <ele>347.125336</ele>
        <time>2010-06-05T12:44:03Z</time>
      </trkpt>
      <trkpt lat="48.72111" lon="7.32773">
        <ele>348.156586</ele>
        <time>2010-06-05T12:44:06Z</time>
      </trkpt>
      <trkpt lat="48.72104" lon="7.32762">
        <ele>350.508148</ele>
        <time>2010-06-05T12:44:09Z</time>
      </trkpt>
      <trkpt lat="48.72094" lon="7.32753">
        <ele>351.453461</ele>
        <time>2010-06-05T12:44:12Z</time>
      </trkpt>
      <trkpt lat="48.72085" lon="7.32746">
        <ele>352.164398</ele>
        <time>2010-06-05T12:44:15Z</time>
      </trkpt>
      <trkpt lat="48.72074" lon="7.3274">
        <ele>352.937836</ele>
        <time>2010-06-05T12:44:18Z</time>
      </trkpt>
      <trkpt lat="48.72064" lon="7.32735">
        <ele>353.633148</ele>
        <time>2010-06-05T12:44:21Z</time>
      </trkpt>
      <trkpt lat="48.72055" lon="7.32731">
        <ele>353.984711</ele>
        <time>2010-06-05T12:44:24Z</time>
      </trkpt>
      <trkpt lat="48.72046" lon="7.32724">
        <ele>353.633148</ele>
        <time>2010-06-05T12:44:27Z</time>
      </trkpt>
      <trkpt lat="48.72035" lon="7.3272">
        <ele>352.687836</ele>
        <time>2010-06-05T12:44:31Z</time>
      </trkpt>
      <trkpt lat="48.72026" lon="7.32717">
        <ele>351.890961</ele>
        <time>2010-06-05T12:44:34Z</time>
      </trkpt>
      <trkpt lat="48.72015" lon="7.32715">
        <ele>352.023773</ele>
        <time>2010-06-05T12:44:38Z</time>
      </trkpt>
      <trkpt lat="48.72005" lon="7.32715">
        <ele>352.133148</ele>
        <time>2010-06-05T12:44:41Z</time>
      </trkpt>
      <trkpt lat="48.71995" lon="7.32716">
        <ele>350.219086</ele>
        <time>2010-06-05T12:44:45Z</time>
      </trkpt>
      <trkpt lat="48.71984" lon="7.32715">
        <ele>351.594086</ele>
        <time>2010-06-05T12:44:49Z</time>
      </trkpt>
      <trkpt lat="48.71973" lon="7.32715">
        <ele>351.703461</ele>
        <time>2010-06-05T12:44:53Z</time>
      </trkpt>
      <trkpt lat="48.71963" lon="7.32715">
        <ele>351.797211</ele>
        <time>2010-06-05T12:44:57Z</time>
      </trkpt>
      <trkpt lat="48.71952" lon="7.32717">
        <ele>354.117523</ele>
        <time>2010-06-05T12:45:01Z</time>
      </trkpt>
      <trkpt lat="48.71941" lon="7.32718">
        <ele>354.164398</ele>
        <time>2010-06-05T12:45:05Z</time>
      </trkpt>
      <trkpt lat="48.71931" lon="7.32721">
        <ele>356.039398</ele>
        <time>2010-06-05T12:45:09Z</time>
      </trkpt>
      <trkpt lat="48.7192" lon="7.32725">
        <ele>355.437836</ele>
        <time>2010-06-05T12:45:13Z</time>
      </trkpt>
      <trkpt lat="48.71911" lon="7.32729">
        <ele>356.656586</ele>
        <time>2010-06-05T12:45:17Z</time>
      </trkpt>
      <trkpt lat="48.71901" lon="7.32737">
        <ele>354.805023</ele>
        <time>2010-06-05T12:45:22Z</time>
      </trkpt>
      <trkpt lat="48.71893" lon="7.32743">
        <ele>354.414398</ele>
        <time>2010-06-05T12:45:26Z</time>
      </trkpt>
      <trkpt lat="48.71884" lon="7.32749">
        <ele>353.859711</ele>
        <time>2010-06-05T12:45:30Z</time>
      </trkpt>
      <trkpt lat="48.71874" lon="7.32755">
        <ele>355.437836</ele>
        <time>2010-06-05T12:45:35Z</time>
      </trkpt>
      <trkpt lat="48.71865" lon="7.32764">
        <ele>357.828461</ele>
        <time>2010-06-05T12:45:39Z</time>
      </trkpt>
      <trkpt lat="48.71856" lon="7.32773">
        <ele>361.000336</ele>
        <time>2010-06-05T12:45:43Z</time>
      </trkpt>
      <trkpt lat="48.71847" lon="7.32778">
        <ele>363.289398</ele>
        <time>2010-06-05T12:45:47Z</time>
      </trkpt>
      <trkpt lat="48.71837" lon="7.32783">
        <ele>364.656586</ele>
        <time>2010-06-05T12:45:50Z</time>
      </trkpt>
      <trkpt lat="48.71829" lon="7.32789">
        <ele>364.281586</ele>
        <time>2010-06-05T12:45:53Z</time>
      </trkpt>
      <trkpt lat="48.7182" lon="7.32797">
        <ele>364.328461</ele>
        <time>2010-06-05T12:45:57Z</time>
      </trkpt>
      <trkpt lat="48.71811" lon="7.32804">
        <ele>363.781586</ele>
        <time>2010-06-05T12:46:01Z</time>
      </trkpt>
      <trkpt lat="48.718" lon="7.32809">
        <ele>362.703461</ele>
        <time>2010-06-05T12:46:05Z</time>
      </trkpt>
      <trkpt lat="48.7179" lon="7.32811">
        <ele>362.148773</ele>
        <time>2010-06-05T12:46:09Z</time>
      </trkpt>
      <trkpt lat="48.71782" lon="7.32815">
        <ele>359.031586</ele>
        <time>2010-06-05T12:46:13Z</time>
      </trkpt>
      <trkpt lat="48.71771" lon="7.32813">
        <ele>359.383148</ele>
        <time>2010-06-05T12:46:17Z</time>
      </trkpt>
      <trkpt lat="48.7176" lon="7.32809">
        <ele>359.015961</ele>
        <time>2010-06-05T12:46:21Z</time>
      </trkpt>
      <trkpt lat="48.71751" lon="7.32809">
        <ele>356.281586</ele>
        <time>2010-06-05T12:46:24Z</time>
      </trkpt>
      <trkpt lat="48.7174" lon="7.32809">
        <ele>353.555023</ele>
        <time>2010-06-05T12:46:28Z</time>
      </trkpt>
      <trkpt lat="48.7173" lon="7.32809">
        <ele>354.000336</ele>
        <time>2010-06-05T12:46:31Z</time>
      </trkpt>
      <trkpt lat="48.71721" lon="7.32807">
        <ele>354.445648</ele>
        <time>2010-06-05T12:46:35Z</time>
      </trkpt>
      <trkpt lat="48.7171" lon="7.32808">
        <ele>354.781586</ele>
        <time>2010-06-05T12:46:39Z</time>
      </trkpt>
      <trkpt lat="48.717" lon="7.32809">
        <ele>355.500336</ele>
        <time>2010-06-05T12:46:43Z</time>
      </trkpt>
      <trkpt lat="48.71691" lon="7.32816">
        <ele>355.476898</ele>
        <time>2010-06-05T12:46:47Z</time>
      </trkpt>
      <trkpt lat="48.71682" lon="7.32824">
        <ele>354.117523</ele>
        <time>2010-06-05T12:46:51Z</time>
      </trkpt>
      <trkpt lat="48.71673" lon="7.32829">
        <ele>353.195648</ele>
        <time>2010-06-05T12:46:55Z</time>
      </trkpt>
      <trkpt lat="48.71664" lon="7.32839">
        <ele>354.617523</ele>
        <time>2010-06-05T12:47:01Z</time>
      </trkpt>
      <trkpt lat="48.71658" lon="7.3285">
        <ele>354.765961</ele>
        <time>2010-06-05T12:47:05Z</time>
      </trkpt>
      <trkpt lat="48.71652" lon="7.32862">
        <ele>355.328461</ele>
        <time>2010-06-05T12:47:09Z</time>
      </trkpt>
      <trkpt lat="48.7165" lon="7.32878">
        <ele>356.594086</ele>
        <time>2010-06-05T12:47:15Z</time>
      </trkpt>
      <trkpt lat="48.71643" lon="7.32887">
        <ele>357.531586</ele>
        <time>2010-06-05T12:47:21Z</time>
      </trkpt>
      <trkpt lat="48.71634" lon="7.32893">
        <ele>359.398773</ele>
        <time>2010-06-05T12:47:24Z</time>
      </trkpt>
      <trkpt lat="48.71622" lon="7.32897">
        <ele>360.672211</ele>
        <time>2010-06-05T12:47:28Z</time>
      </trkpt>
      <trkpt lat="48.71612" lon="7.32897">
        <ele>360.992523</ele>
        <time>2010-06-05T12:47:31Z</time>
      </trkpt>
      <trkpt lat="48.71601" lon="7.32897">
        <ele>360.640961</ele>
        <time>2010-06-05T12:47:35Z</time>
      </trkpt>
      <trkpt lat="48.7159" lon="7.32896">
        <ele>361.773773</ele>
        <time>2010-06-05T12:47:39Z</time>
      </trkpt>
      <trkpt lat="48.7158" lon="7.32892">
        <ele>360.922211</ele>
        <time>2010-06-05T12:47:43Z</time>
      </trkpt>
      <trkpt lat="48.7157" lon="7.32894">
        <ele>360.000336</ele>
        <time>2010-06-05T12:47:47Z</time>
      </trkpt>
      <trkpt lat="48.7156" lon="7.3289">
        <ele>360.758148</ele>
        <time>2010-06-05T12:47:51Z</time>
      </trkpt>
      <trkpt lat="48.71551" lon="7.32888">
        <ele>359.094086</ele>
        <time>2010-06-05T12:47:55Z</time>
      </trkpt>
      <trkpt lat="48.71541" lon="7.32884">
        <ele>357.937836</ele>
        <time>2010-06-05T12:48:00Z</time>
      </trkpt>
      <trkpt lat="48.71531" lon="7.32883">
        <ele>357.430023</ele>
        <time>2010-06-05T12:48:04Z</time>
      </trkpt>
      <trkpt lat="48.7152" lon="7.32884">
        <ele>356.758148</ele>
        <time>2010-06-05T12:48:08Z</time>
      </trkpt>
      <trkpt lat="48.71511" lon="7.32884">
        <ele>356.820648</ele>
        <time>2010-06-05T12:48:11Z</time>
      </trkpt>
      <trkpt lat="48.71502" lon="7.3288">
        <ele>355.101898</ele>
        <time>2010-06-05T12:48:15Z</time>
      </trkpt>
      <trkpt lat="48.71492" lon="7.32879">
        <ele>353.648773</ele>
        <time>2010-06-05T12:48:19Z</time>
      </trkpt>
      <trkpt lat="48.71483" lon="7.32878">
        <ele>352.047211</ele>
        <time>2010-06-05T12:48:23Z</time>
      </trkpt>
      <trkpt lat="48.71473" lon="7.32879">
        <ele>349.523773</ele>
        <time>2010-06-05T12:48:28Z</time>
      </trkpt>
      <trkpt lat="48.71462" lon="7.32879">
        <ele>347.555023</ele>
        <time>2010-06-05T12:48:32Z</time>
      </trkpt>
      <trkpt lat="48.71452" lon="7.32882">
        <ele>345.828461</ele>
        <time>2010-06-05T12:48:36Z</time>
      </trkpt>
      <trkpt lat="48.71442" lon="7.32886">
        <ele>342.953461</ele>
        <time>2010-06-05T12:48:40Z</time>
      </trkpt>
      <trkpt lat="48.71431" lon="7.32886">
        <ele>341.125336</ele>
        <time>2010-06-05T12:48:44Z</time>
      </trkpt>
      <trkpt lat="48.71422" lon="7.32888">
        <ele>339.101898</ele>
        <time>2010-06-05T12:48:48Z</time>
      </trkpt>
      <trkpt lat="48.71411" lon="7.32891">
        <ele>339.875336</ele>
        <time>2010-06-05T12:48:53Z</time>
      </trkpt>
      <trkpt lat="48.71401" lon="7.32894">
        <ele>339.226898</ele>
        <time>2010-06-05T12:48:57Z</time>
      </trkpt>
      <trkpt lat="48.71389" lon="7.32895">
        <ele>337.469086</ele>
        <time>2010-06-05T12:49:02Z</time>
      </trkpt>
      <trkpt lat="48.7138" lon="7.329">
        <ele>337.648773</ele>
        <time>2010-06-05T12:49:06Z</time>
      </trkpt>
      <trkpt lat="48.71368" lon="7.32902">
        <ele>339.133148</ele>
        <time>2010-06-05T12:49:10Z</time>
      </trkpt>
      <trkpt lat="48.71359" lon="7.32904">
        <ele>337.047211</ele>
        <time>2010-06-05T12:49:15Z</time>
      </trkpt>
      <trkpt lat="48.7135" lon="7.32905">
        <ele>337.515961</ele>
        <time>2010-06-05T12:49:18Z</time>
      </trkpt>
      <trkpt lat="48.7134" lon="7.3291">
        <ele>336.930023</ele>
        <time>2010-06-05T12:49:23Z</time>
      </trkpt>
      <trkpt lat="48.71331" lon="7.3291">
        <ele>340.609711</ele>
        <time>2010-06-05T12:49:27Z</time>
      </trkpt>
      <trkpt lat="48.71321" lon="7.3291">
        <ele>339.695648</ele>
        <time>2010-06-05T12:50:35Z</time>
      </trkpt>
      <trkpt lat="48.71312" lon="7.3291">
        <ele>344.828461</ele>
        <time>2010-06-05T12:55:48Z</time>
      </trkpt>
      <trkpt lat="48.71304" lon="7.32909">
        <ele>347.070648</ele>
        <time>2010-06-05T12:55:54Z</time>
      </trkpt>
      <trkpt lat="48.71294" lon="7.32907">
        <ele>347.773773</ele>
        <time>2010-06-05T12:55:58Z</time>
      </trkpt>
      <trkpt lat="48.71283" lon="7.32905">
        <ele>345.961273</ele>
        <time>2010-06-05T12:56:01Z</time>
      </trkpt>
      <trkpt lat="48.71272" lon="7.32903">
        <ele>344.984711</ele>
        <time>2010-06-05T12:56:04Z</time>
      </trkpt>
      <trkpt lat="48.71262" lon="7.329">
        <ele>343.883148</ele>
        <time>2010-06-05T12:56:07Z</time>
      </trkpt>
      <trkpt lat="48.71254" lon="7.32895">
        <ele>343.015961</ele>
        <time>2010-06-05T12:56:10Z</time>
      </trkpt>
      <trkpt lat="48.71246" lon="7.32886">
        <ele>341.515961</ele>
        <time>2010-06-05T12:56:16Z</time>
      </trkpt>
      <trkpt lat="48.71239" lon="7.32877">
        <ele>344.148773</ele>
        <time>2010-06-05T12:56:22Z</time>
      </trkpt>
      <trkpt lat="48.71232" lon="7.32866">
        <ele>346.531586</ele>
        <time>2010-06-05T12:56:26Z</time>
      </trkpt>
      <trkpt lat="48.71224" lon="7.32855">
        <ele>348.836273</ele>
        <time>2010-06-05T12:56:30Z</time>
      </trkpt>
      <trkpt lat="48.71217" lon="7.32847">
        <ele>349.289398</ele>
        <time>2010-06-05T12:56:33Z</time>
      </trkpt>
      <trkpt lat="48.7121" lon="7.32838">
        <ele>349.203461</ele>
        <time>2010-06-05T12:56:37Z</time>
      </trkpt>
      <trkpt lat="48.71202" lon="7.32827">
        <ele>348.953461</ele>
        <time>2010-06-05T12:56:41Z</time>
      </trkpt>
      <trkpt lat="48.71193" lon="7.32817">
        <ele>350.937836</ele>
        <time>2010-06-05T12:56:46Z</time>
      </trkpt>
      <trkpt lat="48.71183" lon="7.32811">
        <ele>349.547211</ele>
        <time>2010-06-05T12:56:50Z</time>
      </trkpt>
      <trkpt lat="48.71174" lon="7.32806">
        <ele>348.601898</ele>
        <time>2010-06-05T12:56:54Z</time>
      </trkpt>
      <trkpt lat="48.71166" lon="7.32799">
        <ele>348.469086</ele>
        <time>2010-06-05T12:57:00Z</time>
      </trkpt>
      <trkpt lat="48.71158" lon="7.32791">
        <ele>348.601898</ele>
        <time>2010-06-05T12:57:06Z</time>
      </trkpt>
      <trkpt lat="48.71149" lon="7.32783">
        <ele>346.453461</ele>
        <time>2010-06-05T12:57:12Z</time>
      </trkpt>
      <trkpt lat="48.71142" lon="7.32773">
        <ele>345.039398</ele>
        <time>2010-06-05T12:57:16Z</time>
      </trkpt>
      <trkpt lat="48.71136" lon="7.32764">
        <ele>341.547211</ele>
        <time>2010-06-05T12:57:24Z</time>
      </trkpt>
      <trkpt lat="48.71125" lon="7.32744">
        <ele>338.125336</ele>
        <time>2010-06-05T12:57:32Z</time>
      </trkpt>
      <trkpt lat="48.71119" lon="7.32734">
        <ele>337.289398</ele>
        <time>2010-06-05T12:57:34Z</time>
      </trkpt>
      <trkpt lat="48.71122" lon="7.32721">
        <ele>338.976898</ele>
        <time>2010-06-05T12:57:39Z</time>
      </trkpt>
      <trkpt lat="48.71119" lon="7.32708">
        <ele>344.133148</ele>
        <time>2010-06-05T12:57:42Z</time>
      </trkpt>
      <trkpt lat="48.71119" lon="7.32694">
        <ele>345.508148</ele>
        <time>2010-06-05T12:57:44Z</time>
      </trkpt>
      <trkpt lat="48.7112" lon="7.3268">
        <ele>346.508148</ele>
        <time>2010-06-05T12:57:46Z</time>
      </trkpt>
      <trkpt lat="48.71124" lon="7.32663">
        <ele>346.695648</ele>
        <time>2010-06-05T12:57:49Z</time>
      </trkpt>
      <trkpt lat="48.71128" lon="7.3265">
        <ele>346.914398</ele>
        <time>2010-06-05T12:57:51Z</time>
      </trkpt>
      <trkpt lat="48.71132" lon="7.32628">
        <ele>346.984711</ele>
        <time>2010-06-05T12:57:54Z</time>
      </trkpt>
      <trkpt lat="48.71137" lon="7.32611">
        <ele>347.226898</ele>
        <time>2010-06-05T12:57:57Z</time>
      </trkpt>
      <trkpt lat="48.71142" lon="7.32594">
        <ele>347.976898</ele>
        <time>2010-06-05T12:58:00Z</time>
      </trkpt>
      <trkpt lat="48.71149" lon="7.32572">
        <ele>348.594086</ele>
        <time>2010-06-05T12:58:02Z</time>
      </trkpt>
      <trkpt lat="48.71154" lon="7.32561">
        <ele>348.586273</ele>
        <time>2010-06-05T12:58:04Z</time>
      </trkpt>
      <trkpt lat="48.7116" lon="7.32548">
        <ele>348.586273</ele>
        <time>2010-06-05T12:58:07Z</time>
      </trkpt>
      <trkpt lat="48.71166" lon="7.32531">
        <ele>349.437836</ele>
        <time>2010-06-05T12:58:10Z</time>
      </trkpt>
      <trkpt lat="48.71177" lon="7.32524">
        <ele>349.625336</ele>
        <time>2010-06-05T12:58:12Z</time>
      </trkpt>
      <trkpt lat="48.71185" lon="7.32518">
        <ele>349.203461</ele>
        <time>2010-06-05T12:58:14Z</time>
      </trkpt>
      <trkpt lat="48.71195" lon="7.32505">
        <ele>349.890961</ele>
        <time>2010-06-05T12:58:17Z</time>
      </trkpt>
      <trkpt lat="48.71205" lon="7.32494">
        <ele>352.601898</ele>
        <time>2010-06-05T12:58:20Z</time>
      </trkpt>
      <trkpt lat="48.71216" lon="7.3249">
        <ele>357.101898</ele>
        <time>2010-06-05T12:58:22Z</time>
      </trkpt>
      <trkpt lat="48.71225" lon="7.32482">
        <ele>361.851898</ele>
        <time>2010-06-05T12:58:25Z</time>
      </trkpt>
      <trkpt lat="48.71233" lon="7.32475">
        <ele>365.031586</ele>
        <time>2010-06-05T12:58:29Z</time>
      </trkpt>
      <trkpt lat="48.7124" lon="7.32477">
        <ele>371.625336</ele>
        <time>2010-06-05T13:01:12Z</time>
      </trkpt>
      <trkpt lat="48.71236" lon="7.32491">
        <ele>374.109711</ele>
        <time>2010-06-05T13:02:07Z</time>
      </trkpt>
      <trkpt lat="48.7123" lon="7.32498">
        <ele>383.851898</ele>
        <time>2010-06-05T13:02:12Z</time>
      </trkpt>
      <trkpt lat="48.71225" lon="7.32511">
        <ele>387.500336</ele>
        <time>2010-06-05T13:02:20Z</time>
      </trkpt>
      <trkpt lat="48.71218" lon="7.32518">
        <ele>388.719086</ele>
        <time>2010-06-05T13:02:28Z</time>
      </trkpt>
      <trkpt lat="48.71209" lon="7.32523">
        <ele>389.344086</ele>
        <time>2010-06-05T13:02:35Z</time>
      </trkpt>
      <trkpt lat="48.71199" lon="7.32524">
        <ele>389.211273</ele>
        <time>2010-06-05T13:02:44Z</time>
      </trkpt>
      <trkpt lat="48.71193" lon="7.32534">
        <ele>388.805023</ele>
        <time>2010-06-05T13:02:49Z</time>
      </trkpt>
      <trkpt lat="48.71183" lon="7.32536">
        <ele>388.445648</ele>
        <time>2010-06-05T13:02:54Z</time>
      </trkpt>
      <trkpt lat="48.71175" lon="7.32546">
        <ele>387.945648</ele>
        <time>2010-06-05T13:03:05Z</time>
      </trkpt>
      <trkpt lat="48.71166" lon="7.3255">
        <ele>387.594086</ele>
        <time>2010-06-05T13:03:12Z</time>
      </trkpt>
      <trkpt lat="48.71161" lon="7.32563">
        <ele>386.242523</ele>
        <time>2010-06-05T13:03:21Z</time>
      </trkpt>
      <trkpt lat="48.7116" lon="7.32576">
        <ele>385.250336</ele>
        <time>2010-06-05T13:03:26Z</time>
      </trkpt>
      <trkpt lat="48.71159" lon="7.326">
        <ele>385.070648</ele>
        <time>2010-06-05T13:03:29Z</time>
      </trkpt>
      <trkpt lat="48.71158" lon="7.32616">
        <ele>384.148773</ele>
        <time>2010-06-05T13:03:33Z</time>
      </trkpt>
      <trkpt lat="48.71158" lon="7.32631">
        <ele>383.000336</ele>
        <time>2010-06-05T13:03:36Z</time>
      </trkpt>
      <trkpt lat="48.71157" lon="7.32648">
        <ele>383.383148</ele>
        <time>2010-06-05T13:03:39Z</time>
      </trkpt>
      <trkpt lat="48.71154" lon="7.32662">
        <ele>381.094086</ele>
        <time>2010-06-05T13:03:42Z</time>
      </trkpt>
      <trkpt lat="48.71149" lon="7.32673">
        <ele>376.742523</ele>
        <time>2010-06-05T13:03:45Z</time>
      </trkpt>
      <trkpt lat="48.71144" lon="7.32684">
        <ele>371.328461</ele>
        <time>2010-06-05T13:03:49Z</time>
      </trkpt>
      <trkpt lat="48.71143" lon="7.32696">
        <ele>366.812836</ele>
        <time>2010-06-05T13:03:55Z</time>
      </trkpt>
      <trkpt lat="48.71137" lon="7.32708">
        <ele>366.430023</ele>
        <time>2010-06-05T13:03:57Z</time>
      </trkpt>
      <trkpt lat="48.71135" lon="7.32722">
        <ele>362.133148</ele>
        <time>2010-06-05T13:04:01Z</time>
      </trkpt>
      <trkpt lat="48.71136" lon="7.32736">
        <ele>360.406586</ele>
        <time>2010-06-05T13:04:03Z</time>
      </trkpt>
      <trkpt lat="48.7114" lon="7.3275">
        <ele>359.305023</ele>
        <time>2010-06-05T13:04:07Z</time>
      </trkpt>
      <trkpt lat="48.71132" lon="7.32759">
        <ele>358.570648</ele>
        <time>2010-06-05T13:04:09Z</time>
      </trkpt>
      <trkpt lat="48.71134" lon="7.32774">
        <ele>357.125336</ele>
        <time>2010-06-05T13:04:14Z</time>
      </trkpt>
      <trkpt lat="48.71133" lon="7.32789">
        <ele>357.203461</ele>
        <time>2010-06-05T13:04:20Z</time>
      </trkpt>
      <trkpt lat="48.71138" lon="7.32799">
        <ele>362.750336</ele>
        <time>2010-06-05T13:04:22Z</time>
      </trkpt>
      <trkpt lat="48.71135" lon="7.3281">
        <ele>371.453461</ele>
        <time>2010-06-05T13:04:24Z</time>
      </trkpt>
      <trkpt lat="48.71137" lon="7.32821">
        <ele>378.070648</ele>
        <time>2010-06-05T13:04:29Z</time>
      </trkpt>
      <trkpt lat="48.71145" lon="7.32833">
        <ele>381.930023</ele>
        <time>2010-06-05T13:04:33Z</time>
      </trkpt>
      <trkpt lat="48.71147" lon="7.32847">
        <ele>380.828461</ele>
        <time>2010-06-05T13:04:38Z</time>
      </trkpt>
      <trkpt lat="48.71153" lon="7.32858">
        <ele>382.680023</ele>
        <time>2010-06-05T13:04:42Z</time>
      </trkpt>
      <trkpt lat="48.71154" lon="7.32873">
        <ele>386.820648</ele>
        <time>2010-06-05T13:04:47Z</time>
      </trkpt>
      <trkpt lat="48.71162" lon="7.32883">
        <ele>391.648773</ele>
        <time>2010-06-05T13:04:50Z</time>
      </trkpt>
      <trkpt lat="48.71166" lon="7.32893">
        <ele>395.976898</ele>
        <time>2010-06-05T13:04:53Z</time>
      </trkpt>
      <trkpt lat="48.71174" lon="7.32905">
        <ele>398.148773</ele>
        <time>2010-06-05T13:04:57Z</time>
      </trkpt>
      <trkpt lat="48.71178" lon="7.32921">
        <ele>399.195648</ele>
        <time>2010-06-05T13:05:02Z</time>
      </trkpt>
      <trkpt lat="48.71183" lon="7.32933">
        <ele>402.086273</ele>
        <time>2010-06-05T13:05:08Z</time>
      </trkpt>
      <trkpt lat="48.71188" lon="7.32944">
        <ele>403.375336</ele>
        <time>2010-06-05T13:05:13Z</time>
      </trkpt>
      <trkpt lat="48.71193" lon="7.32955">
        <ele>402.609711</ele>
        <time>2010-06-05T13:05:17Z</time>
      </trkpt>
      <trkpt lat="48.71197" lon="7.32967">
        <ele>406.484711</ele>
        <time>2010-06-05T13:05:22Z</time>
      </trkpt>
      <trkpt lat="48.71207" lon="7.32974">
        <ele>407.305023</ele>
        <time>2010-06-05T13:05:27Z</time>
      </trkpt>
      <trkpt lat="48.71215" lon="7.32984">
        <ele>408.242523</ele>
        <time>2010-06-05T13:05:35Z</time>
      </trkpt>
      <trkpt lat="48.71224" lon="7.32992">
        <ele>407.695648</ele>
        <time>2010-06-05T13:05:43Z</time>
      </trkpt>
      <trkpt lat="48.71235" lon="7.32996">
        <ele>406.914398</ele>
        <time>2010-06-05T13:05:50Z</time>
      </trkpt>
      <trkpt lat="48.71244" lon="7.32999">
        <ele>405.289398</ele>
        <time>2010-06-05T13:05:57Z</time>
      </trkpt>
      <trkpt lat="48.71252" lon="7.33006">
        <ele>404.726898</ele>
        <time>2010-06-05T13:06:03Z</time>
      </trkpt>
      <trkpt lat="48.71262" lon="7.3301">
        <ele>404.211273</ele>
        <time>2010-06-05T13:06:10Z</time>
      </trkpt>
      <trkpt lat="48.71275" lon="7.33018">
        <ele>406.390961</ele>
        <time>2010-06-05T13:06:16Z</time>
      </trkpt>
      <trkpt lat="48.71283" lon="7.33024">
        <ele>406.414398</ele>
        <time>2010-06-05T13:06:21Z</time>
      </trkpt>
      <trkpt lat="48.71294" lon="7.33025">
        <ele>407.047211</ele>
        <time>2010-06-05T13:06:25Z</time>
      </trkpt>
      <trkpt lat="48.71302" lon="7.33031">
        <ele>409.023773</ele>
        <time>2010-06-05T13:06:30Z</time>
      </trkpt>
      <trkpt lat="48.71311" lon="7.33032">
        <ele>410.930023</ele>
        <time>2010-06-05T13:06:33Z</time>
      </trkpt>
      <trkpt lat="48.71321" lon="7.33031">
        <ele>413.609711</ele>
        <time>2010-06-05T13:06:43Z</time>
      </trkpt>
      <trkpt lat="48.71331" lon="7.33033">
        <ele>413.297211</ele>
        <time>2010-06-05T13:06:48Z</time>
      </trkpt>
      <trkpt lat="48.71341" lon="7.33035">
        <ele>413.883148</ele>
        <time>2010-06-05T13:06:53Z</time>
      </trkpt>
      <trkpt lat="48.7135" lon="7.33036">
        <ele>413.297211</ele>
        <time>2010-06-05T13:06:58Z</time>
      </trkpt>
      <trkpt lat="48.71359" lon="7.33032">
        <ele>411.586273</ele>
        <time>2010-06-05T13:07:04Z</time>
      </trkpt>
      <trkpt lat="48.71368" lon="7.33034">
        <ele>410.765961</ele>
        <time>2010-06-05T13:07:09Z</time>
      </trkpt>
      <trkpt lat="48.71377" lon="7.33034">
        <ele>410.367523</ele>
        <time>2010-06-05T13:07:14Z</time>
      </trkpt>
      <trkpt lat="48.71386" lon="7.33036">
        <ele>408.859711</ele>
        <time>2010-06-05T13:07:20Z</time>
      </trkpt>
      <trkpt lat="48.71393" lon="7.33043">
        <ele>405.351898</ele>
        <time>2010-06-05T13:10:07Z</time>
      </trkpt>
      <trkpt lat="48.71404" lon="7.33043">
        <ele>406.570648</ele>
        <time>2010-06-05T13:10:19Z</time>
      </trkpt>
      <trkpt lat="48.71415" lon="7.3305">
        <ele>406.281586</ele>
        <time>2010-06-05T13:10:24Z</time>
      </trkpt>
      <trkpt lat="48.71424" lon="7.3305">
        <ele>405.711273</ele>
        <time>2010-06-05T13:10:29Z</time>
      </trkpt>
      <trkpt lat="48.71433" lon="7.3305">
        <ele>405.281586</ele>
        <time>2010-06-05T13:10:34Z</time>
      </trkpt>
      <trkpt lat="48.71444" lon="7.3305">
        <ele>404.992523</ele>
        <time>2010-06-05T13:10:41Z</time>
      </trkpt>
      <trkpt lat="48.71453" lon="7.33052">
        <ele>407.594086</ele>
        <time>2010-06-05T13:10:46Z</time>
      </trkpt>
      <trkpt lat="48.71462" lon="7.33054">
        <ele>408.726898</ele>
        <time>2010-06-05T13:10:50Z</time>
      </trkpt>
      <trkpt lat="48.71471" lon="7.33053">
        <ele>411.023773</ele>
        <time>2010-06-05T13:10:54Z</time>
      </trkpt>
      <trkpt lat="48.71481" lon="7.33055">
        <ele>410.875336</ele>
        <time>2010-06-05T13:10:57Z</time>
      </trkpt>
      <trkpt lat="48.71492" lon="7.33056">
        <ele>412.726898</ele>
        <time>2010-06-05T13:11:01Z</time>
      </trkpt>
      <trkpt lat="48.71504" lon="7.33058">
        <ele>415.594086</ele>
        <time>2010-06-05T13:11:04Z</time>
      </trkpt>
      <trkpt lat="48.71513" lon="7.33056">
        <ele>415.820648</ele>
        <time>2010-06-05T13:11:06Z</time>
      </trkpt>
      <trkpt lat="48.71523" lon="7.3306">
        <ele>416.086273</ele>
        <time>2010-06-05T13:11:09Z</time>
      </trkpt>
      <trkpt lat="48.71532" lon="7.33063">
        <ele>418.219086</ele>
        <time>2010-06-05T13:11:14Z</time>
      </trkpt>
      <trkpt lat="48.7154" lon="7.33068">
        <ele>416.961273</ele>
        <time>2010-06-05T13:11:22Z</time>
      </trkpt>
      <trkpt lat="48.71529" lon="7.33067">
        <ele>418.070648</ele>
        <time>2010-06-05T13:18:02Z</time>
      </trkpt>
      <trkpt lat="48.71518" lon="7.33063">
        <ele>418.101898</ele>
        <time>2010-06-05T13:18:05Z</time>
      </trkpt>
      <trkpt lat="48.71506" lon="7.33063">
        <ele>418.437836</ele>
        <time>2010-06-05T13:18:09Z</time>
      </trkpt>
      <trkpt lat="48.71496" lon="7.33062">
        <ele>418.414398</ele>
        <time>2010-06-05T13:18:12Z</time>
      </trkpt>
      <trkpt lat="48.71487" lon="7.33062">
        <ele>416.805023</ele>
        <time>2010-06-05T13:18:15Z</time>
      </trkpt>
      <trkpt lat="48.71476" lon="7.33065">
        <ele>412.750336</ele>
        <time>2010-06-05T13:18:19Z</time>
      </trkpt>
      <trkpt lat="48.71468" lon="7.3307">
        <ele>410.531586</ele>
        <time>2010-06-05T13:18:23Z</time>
      </trkpt>
      <trkpt lat="48.71458" lon="7.33074">
        <ele>408.625336</ele>
        <time>2010-06-05T13:18:27Z</time>
      </trkpt>
      <trkpt lat="48.71449" lon="7.33077">
        <ele>408.469086</ele>
        <time>2010-06-05T13:18:31Z</time>
      </trkpt>
      <trkpt lat="48.71439" lon="7.3308">
        <ele>407.453461</ele>
        <time>2010-06-05T13:18:36Z</time>
      </trkpt>
      <trkpt lat="48.71426" lon="7.33081">
        <ele>407.586273</ele>
        <time>2010-06-05T13:18:40Z</time>
      </trkpt>
      <trkpt lat="48.71417" lon="7.3308">
        <ele>406.187836</ele>
        <time>2010-06-05T13:18:43Z</time>
      </trkpt>
      <trkpt lat="48.71408" lon="7.33088">
        <ele>405.531586</ele>
        <time>2010-06-05T13:18:47Z</time>
      </trkpt>
      <trkpt lat="48.71398" lon="7.3309">
        <ele>404.828461</ele>
        <time>2010-06-05T13:18:52Z</time>
      </trkpt>
      <trkpt lat="48.71388" lon="7.33092">
        <ele>403.875336</ele>
        <time>2010-06-05T13:18:55Z</time>
      </trkpt>
      <trkpt lat="48.71376" lon="7.33097">
        <ele>403.219086</ele>
        <time>2010-06-05T13:18:58Z</time>
      </trkpt>
      <trkpt lat="48.71365" lon="7.33096">
        <ele>403.617523</ele>
        <time>2010-06-05T13:19:00Z</time>
      </trkpt>
      <trkpt lat="48.71353" lon="7.33099">
        <ele>402.258148</ele>
        <time>2010-06-05T13:19:02Z</time>
      </trkpt>
      <trkpt lat="48.71343" lon="7.33103">
        <ele>402.875336</ele>
        <time>2010-06-05T13:19:04Z</time>
      </trkpt>
      <trkpt lat="48.71333" lon="7.33106">
        <ele>401.594086</ele>
        <time>2010-06-05T13:19:06Z</time>
      </trkpt>
      <trkpt lat="48.71323" lon="7.3311">
        <ele>401.039398</ele>
        <time>2010-06-05T13:19:08Z</time>
      </trkpt>
      <trkpt lat="48.7131" lon="7.33116">
        <ele>402.187836</ele>
        <time>2010-06-05T13:19:10Z</time>
      </trkpt>
      <trkpt lat="48.713" lon="7.33115">
        <ele>402.875336</ele>
        <time>2010-06-05T13:19:12Z</time>
      </trkpt>
      <trkpt lat="48.71288" lon="7.33114">
        <ele>402.211273</ele>
        <time>2010-06-05T13:19:14Z</time>
      </trkpt>
      <trkpt lat="48.7128" lon="7.33112">
        <ele>400.648773</ele>
        <time>2010-06-05T13:19:16Z</time>
      </trkpt>
      <trkpt lat="48.71269" lon="7.33115">
        <ele>402.008148</ele>
        <time>2010-06-05T13:19:18Z</time>
      </trkpt>
      <trkpt lat="48.71259" lon="7.33116">
        <ele>401.242523</ele>
        <time>2010-06-05T13:19:20Z</time>
      </trkpt>
      <trkpt lat="48.71248" lon="7.33118">
        <ele>401.422211</ele>
        <time>2010-06-05T13:19:22Z</time>
      </trkpt>
      <trkpt lat="48.71237" lon="7.33124">
        <ele>402.281586</ele>
        <time>2010-06-05T13:19:24Z</time>
      </trkpt>
      <trkpt lat="48.71227" lon="7.3313">
        <ele>403.797211</ele>
        <time>2010-06-05T13:19:26Z</time>
      </trkpt>
      <trkpt lat="48.71216" lon="7.33134">
        <ele>406.781586</ele>
        <time>2010-06-05T13:19:28Z</time>
      </trkpt>
      <trkpt lat="48.71206" lon="7.33139">
        <ele>407.492523</ele>
        <time>2010-06-05T13:19:30Z</time>
      </trkpt>
      <trkpt lat="48.71197" lon="7.33144">
        <ele>407.437836</ele>
        <time>2010-06-05T13:19:32Z</time>
      </trkpt>
      <trkpt lat="48.71189" lon="7.33151">
        <ele>407.781586</ele>
        <time>2010-06-05T13:19:34Z</time>
      </trkpt>
      <trkpt lat="48.7118" lon="7.33149">
        <ele>412.976898</ele>
        <time>2010-06-05T13:19:36Z</time>
      </trkpt>
      <trkpt lat="48.71171" lon="7.33158">
        <ele>414.625336</ele>
        <time>2010-06-05T13:19:41Z</time>
      </trkpt>
      <trkpt lat="48.71171" lon="7.33171">
        <ele>418.773773</ele>
        <time>2010-06-05T13:19:47Z</time>
      </trkpt>
      <trkpt lat="48.71164" lon="7.33163">
        <ele>417.555023</ele>
        <time>2010-06-05T13:22:46Z</time>
      </trkpt>
      <trkpt lat="48.71153" lon="7.33168">
        <ele>417.203461</ele>
        <time>2010-06-05T13:22:50Z</time>
      </trkpt>
      <trkpt lat="48.71143" lon="7.33173">
        <ele>416.383148</ele>
        <time>2010-06-05T13:22:53Z</time>
      </trkpt>
      <trkpt lat="48.71135" lon="7.33178">
        <ele>415.180023</ele>
        <time>2010-06-05T13:22:56Z</time>
      </trkpt>
      <trkpt lat="48.71126" lon="7.33184">
        <ele>414.195648</ele>
        <time>2010-06-05T13:22:59Z</time>
      </trkpt>
      <trkpt lat="48.71117" lon="7.3319">
        <ele>413.008148</ele>
        <time>2010-06-05T13:23:02Z</time>
      </trkpt>
      <trkpt lat="48.71108" lon="7.33197">
        <ele>411.461273</ele>
        <time>2010-06-05T13:23:06Z</time>
      </trkpt>
      <trkpt lat="48.71096" lon="7.33199">
        <ele>410.203461</ele>
        <time>2010-06-05T13:23:10Z</time>
      </trkpt>
      <trkpt lat="48.71086" lon="7.33201">
        <ele>407.992523</ele>
        <time>2010-06-05T13:23:15Z</time>
      </trkpt>
      <trkpt lat="48.71077" lon="7.33206">
        <ele>406.664398</ele>
        <time>2010-06-05T13:23:21Z</time>
      </trkpt>
      <trkpt lat="48.71068" lon="7.33207">
        <ele>405.797211</ele>
        <time>2010-06-05T13:23:26Z</time>
      </trkpt>
      <trkpt lat="48.71059" lon="7.33209">
        <ele>405.508148</ele>
        <time>2010-06-05T13:23:29Z</time>
      </trkpt>
      <trkpt lat="48.7105" lon="7.33214">
        <ele>405.078461</ele>
        <time>2010-06-05T13:23:34Z</time>
      </trkpt>
      <trkpt lat="48.7104" lon="7.33214">
        <ele>404.695648</ele>
        <time>2010-06-05T13:23:39Z</time>
      </trkpt>
      <trkpt lat="48.71028" lon="7.3321">
        <ele>404.687836</ele>
        <time>2010-06-05T13:23:43Z</time>
      </trkpt>
      <trkpt lat="48.71019" lon="7.33212">
        <ele>404.500336</ele>
        <time>2010-06-05T13:23:46Z</time>
      </trkpt>
      <trkpt lat="48.71009" lon="7.33212">
        <ele>403.969086</ele>
        <time>2010-06-05T13:23:49Z</time>
      </trkpt>
      <trkpt lat="48.70997" lon="7.33215">
        <ele>406.195648</ele>
        <time>2010-06-05T13:23:53Z</time>
      </trkpt>
      <trkpt lat="48.70988" lon="7.33215">
        <ele>409.172211</ele>
        <time>2010-06-05T13:23:57Z</time>
      </trkpt>
      <trkpt lat="48.70977" lon="7.33215">
        <ele>412.640961</ele>
        <time>2010-06-05T13:24:00Z</time>
      </trkpt>
      <trkpt lat="48.70968" lon="7.3321">
        <ele>415.203461</ele>
        <time>2010-06-05T13:24:02Z</time>
      </trkpt>
      <trkpt lat="48.70958" lon="7.33209">
        <ele>417.008148</ele>
        <time>2010-06-05T13:24:07Z</time>
      </trkpt>
      <trkpt lat="48.70947" lon="7.33206">
        <ele>419.797211</ele>
        <time>2010-06-05T13:24:11Z</time>
      </trkpt>
      <trkpt lat="48.70936" lon="7.33201">
        <ele>421.969086</ele>
        <time>2010-06-05T13:24:14Z</time>
      </trkpt>
      <trkpt lat="48.70927" lon="7.33198">
        <ele>425.305023</ele>
        <time>2010-06-05T13:24:17Z</time>
      </trkpt>
      <trkpt lat="48.70919" lon="7.33197">
        <ele>427.703461</ele>
        <time>2010-06-05T13:24:21Z</time>
      </trkpt>
      <trkpt lat="48.70909" lon="7.33193">
        <ele>430.914398</ele>
        <time>2010-06-05T13:24:27Z</time>
      </trkpt>
      <trkpt lat="48.70898" lon="7.33187">
        <ele>433.187836</ele>
        <time>2010-06-05T13:24:33Z</time>
      </trkpt>
      <trkpt lat="48.7089" lon="7.33182">
        <ele>433.687836</ele>
        <time>2010-06-05T13:24:37Z</time>
      </trkpt>
      <trkpt lat="48.7088" lon="7.33178">
        <ele>433.820648</ele>
        <time>2010-06-05T13:24:42Z</time>
      </trkpt>
      <trkpt lat="48.70871" lon="7.33171">
        <ele>434.031586</ele>
        <time>2010-06-05T13:24:47Z</time>
      </trkpt>
      <trkpt lat="48.70862" lon="7.33164">
        <ele>435.844086</ele>
        <time>2010-06-05T13:24:52Z</time>
      </trkpt>
      <trkpt lat="48.70852" lon="7.33159">
        <ele>435.180023</ele>
        <time>2010-06-05T13:24:56Z</time>
      </trkpt>
      <trkpt lat="48.70844" lon="7.33154">
        <ele>436.344086</ele>
        <time>2010-06-05T13:25:00Z</time>
      </trkpt>
      <trkpt lat="48.70833" lon="7.33154">
        <ele>438.305023</ele>
        <time>2010-06-05T13:25:05Z</time>
      </trkpt>
      <trkpt lat="48.70824" lon="7.33149">
        <ele>440.125336</ele>
        <time>2010-06-05T13:25:08Z</time>
      </trkpt>
      <trkpt lat="48.70816" lon="7.33143">
        <ele>441.531586</ele>
        <time>2010-06-05T13:25:11Z</time>
      </trkpt>
      <trkpt lat="48.70807" lon="7.33135">
        <ele>443.000336</ele>
        <time>2010-06-05T13:25:14Z</time>
      </trkpt>
      <trkpt lat="48.70796" lon="7.3313">
        <ele>443.890961</ele>
        <time>2010-06-05T13:25:18Z</time>
      </trkpt>
      <trkpt lat="48.70786" lon="7.33125">
        <ele>445.664398</ele>
        <time>2010-06-05T13:25:22Z</time>
      </trkpt>
      <trkpt lat="48.70778" lon="7.33116">
        <ele>446.883148</ele>
        <time>2010-06-05T13:25:27Z</time>
      </trkpt>
      <trkpt lat="48.7077" lon="7.33106">
        <ele>449.047211</ele>
        <time>2010-06-05T13:25:31Z</time>
      </trkpt>
      <trkpt lat="48.70762" lon="7.33097">
        <ele>448.969086</ele>
        <time>2010-06-05T13:25:37Z</time>
      </trkpt>
      <trkpt lat="48.70754" lon="7.33088">
        <ele>448.398773</ele>
        <time>2010-06-05T13:25:43Z</time>
      </trkpt>
      <trkpt lat="48.70745" lon="7.33079">
        <ele>447.719086</ele>
        <time>2010-06-05T13:25:49Z</time>
      </trkpt>
      <trkpt lat="48.70738" lon="7.33068">
        <ele>446.531586</ele>
        <time>2010-06-05T13:25:54Z</time>
      </trkpt>
      <trkpt lat="48.7073" lon="7.33057">
        <ele>446.047211</ele>
        <time>2010-06-05T13:26:02Z</time>
      </trkpt>
      <trkpt lat="48.70725" lon="7.33046">
        <ele>447.117523</ele>
        <time>2010-06-05T13:26:33Z</time>
      </trkpt>
      <trkpt lat="48.70719" lon="7.33035">
        <ele>447.187836</ele>
        <time>2010-06-05T13:26:38Z</time>
      </trkpt>
      <trkpt lat="48.70713" lon="7.33024">
        <ele>447.008148</ele>
        <time>2010-06-05T13:26:42Z</time>
      </trkpt>
      <trkpt lat="48.70703" lon="7.33012">
        <ele>449.055023</ele>
        <time>2010-06-05T13:26:47Z</time>
      </trkpt>
      <trkpt lat="48.70691" lon="7.33004">
        <ele>450.937836</ele>
        <time>2010-06-05T13:26:50Z</time>
      </trkpt>
      <trkpt lat="48.70681" lon="7.32995">
        <ele>450.945648</ele>
        <time>2010-06-05T13:26:54Z</time>
      </trkpt>
      <trkpt lat="48.70671" lon="7.3299">
        <ele>450.969086</ele>
        <time>2010-06-05T13:26:57Z</time>
      </trkpt>
      <trkpt lat="48.7066" lon="7.32984">
        <ele>451.844086</ele>
        <time>2010-06-05T13:27:00Z</time>
      </trkpt>
      <trkpt lat="48.70649" lon="7.32979">
        <ele>453.164398</ele>
        <time>2010-06-05T13:27:03Z</time>
      </trkpt>
      <trkpt lat="48.70637" lon="7.32975">
        <ele>452.844086</ele>
        <time>2010-06-05T13:27:06Z</time>
      </trkpt>
      <trkpt lat="48.70628" lon="7.32971">
        <ele>451.875336</ele>
        <time>2010-06-05T13:27:08Z</time>
      </trkpt>
      <trkpt lat="48.70618" lon="7.32967">
        <ele>451.258148</ele>
        <time>2010-06-05T13:27:11Z</time>
      </trkpt>
      <trkpt lat="48.70609" lon="7.32964">
        <ele>451.945648</ele>
        <time>2010-06-05T13:27:14Z</time>
      </trkpt>
      <trkpt lat="48.70601" lon="7.32957">
        <ele>453.273773</ele>
        <time>2010-06-05T13:27:19Z</time>
      </trkpt>
      <trkpt lat="48.70594" lon="7.32949">
        <ele>449.484711</ele>
        <time>2010-06-05T13:28:37Z</time>
      </trkpt>
      <trkpt lat="48.70584" lon="7.32948">
        <ele>450.133148</ele>
        <time>2010-06-05T13:28:45Z</time>
      </trkpt>
      <trkpt lat="48.70574" lon="7.32945">
        <ele>450.312836</ele>
        <time>2010-06-05T13:28:51Z</time>
      </trkpt>
      <trkpt lat="48.70565" lon="7.32941">
        <ele>451.859711</ele>
        <time>2010-06-05T13:29:02Z</time>
      </trkpt>
      <trkpt lat="48.70557" lon="7.32934">
        <ele>452.562836</ele>
        <time>2010-06-05T13:29:10Z</time>
      </trkpt>
      <trkpt lat="48.70549" lon="7.32926">
        <ele>454.484711</ele>
        <time>2010-06-05T13:29:20Z</time>
      </trkpt>
      <trkpt lat="48.70541" lon="7.3292">
        <ele>454.883148</ele>
        <time>2010-06-05T13:29:28Z</time>
      </trkpt>
      <trkpt lat="48.70533" lon="7.32914">
        <ele>456.469086</ele>
        <time>2010-06-05T13:29:36Z</time>
      </trkpt>
      <trkpt lat="48.70522" lon="7.32907">
        <ele>460.320648</ele>
        <time>2010-06-05T13:29:46Z</time>
      </trkpt>
      <trkpt lat="48.70514" lon="7.32903">
        <ele>462.414398</ele>
        <time>2010-06-05T13:29:52Z</time>
      </trkpt>
      <trkpt lat="48.70504" lon="7.32899">
        <ele>464.562836</ele>
        <time>2010-06-05T13:29:58Z</time>
      </trkpt>
      <trkpt lat="48.70495" lon="7.32895">
        <ele>466.672211</ele>
        <time>2010-06-05T13:30:02Z</time>
      </trkpt>
      <trkpt lat="48.70487" lon="7.32886">
        <ele>466.836273</ele>
        <time>2010-06-05T13:30:09Z</time>
      </trkpt>
      <trkpt lat="48.70475" lon="7.32876">
        <ele>464.570648</ele>
        <time>2010-06-05T13:30:12Z</time>
      </trkpt>
      <trkpt lat="48.70466" lon="7.3287">
        <ele>465.430023</ele>
        <time>2010-06-05T13:30:16Z</time>
      </trkpt>
      <trkpt lat="48.70458" lon="7.32862">
        <ele>466.422211</ele>
        <time>2010-06-05T13:30:21Z</time>
      </trkpt>
      <trkpt lat="48.70448" lon="7.32857">
        <ele>469.195648</ele>
        <time>2010-06-05T13:30:26Z</time>
      </trkpt>
      <trkpt lat="48.70439" lon="7.32852">
        <ele>471.851898</ele>
        <time>2010-06-05T13:30:33Z</time>
      </trkpt>
      <trkpt lat="48.7043" lon="7.32846">
        <ele>471.906586</ele>
        <time>2010-06-05T13:30:39Z</time>
      </trkpt>
      <trkpt lat="48.70421" lon="7.32844">
        <ele>472.812836</ele>
        <time>2010-06-05T13:30:44Z</time>
      </trkpt>
      <trkpt lat="48.70413" lon="7.32837">
        <ele>472.617523</ele>
        <time>2010-06-05T13:30:50Z</time>
      </trkpt>
      <trkpt lat="48.70404" lon="7.32829">
        <ele>473.586273</ele>
        <time>2010-06-05T13:30:58Z</time>
      </trkpt>
      <trkpt lat="48.70395" lon="7.32825">
        <ele>473.562836</ele>
        <time>2010-06-05T13:31:04Z</time>
      </trkpt>
      <trkpt lat="48.70386" lon="7.32823">
        <ele>473.508148</ele>
        <time>2010-06-05T13:31:12Z</time>
      </trkpt>
      <trkpt lat="48.70375" lon="7.32818">
        <ele>474.898773</ele>
        <time>2010-06-05T13:31:23Z</time>
      </trkpt>
      <trkpt lat="48.70365" lon="7.32817">
        <ele>475.351898</ele>
        <time>2010-06-05T13:31:29Z</time>
      </trkpt>
      <trkpt lat="48.70355" lon="7.32816">
        <ele>475.562836</ele>
        <time>2010-06-05T13:31:35Z</time>
      </trkpt>
      <trkpt lat="48.70345" lon="7.32817">
        <ele>475.859711</ele>
        <time>2010-06-05T13:31:38Z</time>
      </trkpt>
      <trkpt lat="48.70333" lon="7.32817">
        <ele>476.539398</ele>
        <time>2010-06-05T13:31:42Z</time>
      </trkpt>
      <trkpt lat="48.70322" lon="7.32818">
        <ele>477.070648</ele>
        <time>2010-06-05T13:31:45Z</time>
      </trkpt>
      <trkpt lat="48.70313" lon="7.3282">
        <ele>477.101898</ele>
        <time>2010-06-05T13:31:48Z</time>
      </trkpt>
      <trkpt lat="48.703" lon="7.32818">
        <ele>476.859711</ele>
        <time>2010-06-05T13:31:52Z</time>
      </trkpt>
      <trkpt lat="48.7029" lon="7.32815">
        <ele>476.633148</ele>
        <time>2010-06-05T13:31:56Z</time>
      </trkpt>
      <trkpt lat="48.70281" lon="7.32814">
        <ele>476.836273</ele>
        <time>2010-06-05T13:31:58Z</time>
      </trkpt>
      <trkpt lat="48.7027" lon="7.32816">
        <ele>476.430023</ele>
        <time>2010-06-05T13:32:02Z</time>
      </trkpt>
      <trkpt lat="48.70258" lon="7.32815">
        <ele>475.531586</ele>
        <time>2010-06-05T13:32:06Z</time>
      </trkpt>
      <trkpt lat="48.70247" lon="7.32817">
        <ele>475.656586</ele>
        <time>2010-06-05T13:32:09Z</time>
      </trkpt>
      <trkpt lat="48.70237" lon="7.32819">
        <ele>475.055023</ele>
        <time>2010-06-05T13:32:13Z</time>
      </trkpt>
      <trkpt lat="48.70227" lon="7.32815">
        <ele>475.765961</ele>
        <time>2010-06-05T13:32:16Z</time>
      </trkpt>
      <trkpt lat="48.70216" lon="7.32817">
        <ele>475.078461</ele>
        <time>2010-06-05T13:32:19Z</time>
      </trkpt>
      <trkpt lat="48.70205" lon="7.32815">
        <ele>472.328461</ele>
        <time>2010-06-05T13:32:23Z</time>
      </trkpt>
      <trkpt lat="48.70194" lon="7.32813">
        <ele>469.750336</ele>
        <time>2010-06-05T13:32:25Z</time>
      </trkpt>
      <trkpt lat="48.70186" lon="7.32814">
        <ele>466.219086</ele>
        <time>2010-06-05T13:32:28Z</time>
      </trkpt>
      <trkpt lat="48.70174" lon="7.32811">
        <ele>462.734711</ele>
        <time>2010-06-05T13:32:31Z</time>
      </trkpt>
      <trkpt lat="48.70165" lon="7.32807">
        <ele>459.453461</ele>
        <time>2010-06-05T13:32:33Z</time>
      </trkpt>
      <trkpt lat="48.70155" lon="7.32806">
        <ele>456.781586</ele>
        <time>2010-06-05T13:32:36Z</time>
      </trkpt>
      <trkpt lat="48.70149" lon="7.32809">
        <ele>449.055023</ele>
        <time>2010-06-05T13:33:07Z</time>
      </trkpt>
      <trkpt lat="48.7014" lon="7.32813">
        <ele>449.523773</ele>
        <time>2010-06-05T13:36:13Z</time>
      </trkpt>
      <trkpt lat="48.70131" lon="7.3281">
        <ele>448.219086</ele>
        <time>2010-06-05T13:36:16Z</time>
      </trkpt>
      <trkpt lat="48.7012" lon="7.32806">
        <ele>447.750336</ele>
        <time>2010-06-05T13:36:20Z</time>
      </trkpt>
      <trkpt lat="48.7011" lon="7.328">
        <ele>447.875336</ele>
        <time>2010-06-05T13:36:24Z</time>
      </trkpt>
      <trkpt lat="48.70101" lon="7.32793">
        <ele>448.140961</ele>
        <time>2010-06-05T13:36:28Z</time>
      </trkpt>
      <trkpt lat="48.70092" lon="7.32788">
        <ele>448.242523</ele>
        <time>2010-06-05T13:36:32Z</time>
      </trkpt>
      <trkpt lat="48.70081" lon="7.32788">
        <ele>447.547211</ele>
        <time>2010-06-05T13:36:35Z</time>
      </trkpt>
      <trkpt lat="48.70072" lon="7.32785">
        <ele>447.711273</ele>
        <time>2010-06-05T13:36:38Z</time>
      </trkpt>
      <trkpt lat="48.70061" lon="7.32781">
        <ele>446.930023</ele>
        <time>2010-06-05T13:36:42Z</time>
      </trkpt>
      <trkpt lat="48.70052" lon="7.32777">
        <ele>445.344086</ele>
        <time>2010-06-05T13:36:45Z</time>
      </trkpt>
      <trkpt lat="48.70041" lon="7.32772">
        <ele>442.898773</ele>
        <time>2010-06-05T13:36:51Z</time>
      </trkpt>
      <trkpt lat="48.70032" lon="7.32772">
        <ele>441.312836</ele>
        <time>2010-06-05T13:36:54Z</time>
      </trkpt>
      <trkpt lat="48.7002" lon="7.32771">
        <ele>440.117523</ele>
        <time>2010-06-05T13:36:56Z</time>
      </trkpt>
      <trkpt lat="48.70011" lon="7.32776">
        <ele>438.664398</ele>
        <time>2010-06-05T13:36:58Z</time>
      </trkpt>
      <trkpt lat="48.70002" lon="7.32781">
        <ele>437.140961</ele>
        <time>2010-06-05T13:37:00Z</time>
      </trkpt>
      <trkpt lat="48.69992" lon="7.32786">
        <ele>435.305023</ele>
        <time>2010-06-05T13:37:03Z</time>
      </trkpt>
      <trkpt lat="48.69981" lon="7.32784">
        <ele>433.101898</ele>
        <time>2010-06-05T13:37:05Z</time>
      </trkpt>
      <trkpt lat="48.69972" lon="7.32784">
        <ele>430.750336</ele>
        <time>2010-06-05T13:37:08Z</time>
      </trkpt>
      <trkpt lat="48.69961" lon="7.32783">
        <ele>428.476898</ele>
        <time>2010-06-05T13:37:11Z</time>
      </trkpt>
      <trkpt lat="48.69952" lon="7.32782">
        <ele>424.476898</ele>
        <time>2010-06-05T13:37:15Z</time>
      </trkpt>
      <trkpt lat="48.69944" lon="7.32788">
        <ele>425.984711</ele>
        <time>2010-06-05T13:37:20Z</time>
      </trkpt>
      <trkpt lat="48.69935" lon="7.32789">
        <ele>429.265961</ele>
        <time>2010-06-05T13:37:28Z</time>
      </trkpt>
      <trkpt lat="48.69927" lon="7.32783">
        <ele>429.031586</ele>
        <time>2010-06-05T13:37:48Z</time>
      </trkpt>
      <trkpt lat="48.69917" lon="7.32778">
        <ele>426.180023</ele>
        <time>2010-06-05T13:37:53Z</time>
      </trkpt>
      <trkpt lat="48.69907" lon="7.32774">
        <ele>422.773773</ele>
        <time>2010-06-05T13:37:57Z</time>
      </trkpt>
      <trkpt lat="48.69897" lon="7.32769">
        <ele>420.555023</ele>
        <time>2010-06-05T13:38:00Z</time>
      </trkpt>
      <trkpt lat="48.69889" lon="7.32763">
        <ele>416.687836</ele>
        <time>2010-06-05T13:38:04Z</time>
      </trkpt>
      <trkpt lat="48.6988" lon="7.32762">
        <ele>414.398773</ele>
        <time>2010-06-05T13:38:08Z</time>
      </trkpt>
      <trkpt lat="48.69869" lon="7.32767">
        <ele>413.601898</ele>
        <time>2010-06-05T13:38:13Z</time>
      </trkpt>
      <trkpt lat="48.69858" lon="7.32762">
        <ele>411.750336</ele>
        <time>2010-06-05T13:38:16Z</time>
      </trkpt>
      <trkpt lat="48.69849" lon="7.32758">
        <ele>409.500336</ele>
        <time>2010-06-05T13:38:19Z</time>
      </trkpt>
      <trkpt lat="48.69842" lon="7.32747">
        <ele>407.555023</ele>
        <time>2010-06-05T13:38:23Z</time>
      </trkpt>
      <trkpt lat="48.69832" lon="7.32741">
        <ele>407.687836</ele>
        <time>2010-06-05T13:38:28Z</time>
      </trkpt>
      <trkpt lat="48.69823" lon="7.32736">
        <ele>406.836273</ele>
        <time>2010-06-05T13:38:33Z</time>
      </trkpt>
      <trkpt lat="48.69814" lon="7.32733">
        <ele>405.922211</ele>
        <time>2010-06-05T13:38:37Z</time>
      </trkpt>
      <trkpt lat="48.69804" lon="7.32735">
        <ele>403.492523</ele>
        <time>2010-06-05T13:38:41Z</time>
      </trkpt>
      <trkpt lat="48.69795" lon="7.32734">
        <ele>404.078461</ele>
        <time>2010-06-05T13:38:44Z</time>
      </trkpt>
      <trkpt lat="48.69786" lon="7.32736">
        <ele>401.875336</ele>
        <time>2010-06-05T13:38:49Z</time>
      </trkpt>
      <trkpt lat="48.69775" lon="7.32738">
        <ele>401.234711</ele>
        <time>2010-06-05T13:38:55Z</time>
      </trkpt>
      <trkpt lat="48.69766" lon="7.32743">
        <ele>398.930023</ele>
        <time>2010-06-05T13:39:01Z</time>
      </trkpt>
      <trkpt lat="48.69757" lon="7.32744">
        <ele>397.398773</ele>
        <time>2010-06-05T13:39:04Z</time>
      </trkpt>
      <trkpt lat="48.69746" lon="7.32746">
        <ele>394.976898</ele>
        <time>2010-06-05T13:39:08Z</time>
      </trkpt>
      <trkpt lat="48.69737" lon="7.32745">
        <ele>396.273773</ele>
        <time>2010-06-05T13:39:35Z</time>
      </trkpt>
      <trkpt lat="48.69728" lon="7.32743">
        <ele>395.015961</ele>
        <time>2010-06-05T13:39:39Z</time>
      </trkpt>
      <trkpt lat="48.69719" lon="7.32738">
        <ele>394.687836</ele>
        <time>2010-06-05T13:39:42Z</time>
      </trkpt>
      <trkpt lat="48.6971" lon="7.32725">
        <ele>393.062836</ele>
        <time>2010-06-05T13:39:45Z</time>
      </trkpt>
      <trkpt lat="48.69703" lon="7.32717">
        <ele>391.476898</ele>
        <time>2010-06-05T13:39:49Z</time>
      </trkpt>
      <trkpt lat="48.69698" lon="7.32704">
        <ele>388.015961</ele>
        <time>2010-06-05T13:39:54Z</time>
      </trkpt>
      <trkpt lat="48.69694" lon="7.32692">
        <ele>385.695648</ele>
        <time>2010-06-05T13:39:57Z</time>
      </trkpt>
      <trkpt lat="48.69689" lon="7.3268">
        <ele>383.328461</ele>
        <time>2010-06-05T13:40:01Z</time>
      </trkpt>
      <trkpt lat="48.69682" lon="7.32669">
        <ele>383.000336</ele>
        <time>2010-06-05T13:40:04Z</time>
      </trkpt>
      <trkpt lat="48.69677" lon="7.32655">
        <ele>382.164398</ele>
        <time>2010-06-05T13:40:08Z</time>
      </trkpt>
      <trkpt lat="48.69684" lon="7.32649">
        <ele>387.234711</ele>
        <time>2010-06-05T13:45:38Z</time>
      </trkpt>
      <trkpt lat="48.69675" lon="7.3265">
        <ele>391.539398</ele>
        <time>2010-06-05T13:53:49Z</time>
      </trkpt>
      <trkpt lat="48.69684" lon="7.32647">
        <ele>388.515961</ele>
        <time>2010-06-05T14:01:38Z</time>
      </trkpt>
      <trkpt lat="48.69677" lon="7.32657">
        <ele>390.930023</ele>
        <time>2010-06-05T14:04:14Z</time>
      </trkpt>
      <trkpt lat="48.69686" lon="7.32663">
        <ele>389.914398</ele>
        <time>2010-06-05T14:05:24Z</time>
      </trkpt>
      <trkpt lat="48.69695" lon="7.32662">
        <ele>389.898773</ele>
        <time>2010-06-05T14:05:32Z</time>
      </trkpt>
      <trkpt lat="48.69706" lon="7.32661">
        <ele>389.953461</ele>
        <time>2010-06-05T14:05:37Z</time>
      </trkpt>
      <trkpt lat="48.69716" lon="7.3266">
        <ele>390.726898</ele>
        <time>2010-06-05T14:05:42Z</time>
      </trkpt>
      <trkpt lat="48.69725" lon="7.32661">
        <ele>391.601898</ele>
        <time>2010-06-05T14:05:46Z</time>
      </trkpt>
      <trkpt lat="48.69735" lon="7.32666">
        <ele>393.578461</ele>
        <time>2010-06-05T14:05:50Z</time>
      </trkpt>
      <trkpt lat="48.69747" lon="7.3267">
        <ele>396.719086</ele>
        <time>2010-06-05T14:05:54Z</time>
      </trkpt>
      <trkpt lat="48.69756" lon="7.32669">
        <ele>399.430023</ele>
        <time>2010-06-05T14:05:57Z</time>
      </trkpt>
      <trkpt lat="48.69764" lon="7.32662">
        <ele>400.000336</ele>
        <time>2010-06-05T14:06:02Z</time>
      </trkpt>
      <trkpt lat="48.69773" lon="7.32657">
        <ele>399.562836</ele>
        <time>2010-06-05T14:06:06Z</time>
      </trkpt>
      <trkpt lat="48.69785" lon="7.32652">
        <ele>400.453461</ele>
        <time>2010-06-05T14:06:10Z</time>
      </trkpt>
      <trkpt lat="48.69796" lon="7.32648">
        <ele>401.414398</ele>
        <time>2010-06-05T14:06:13Z</time>
      </trkpt>
      <trkpt lat="48.69806" lon="7.32646">
        <ele>400.859711</ele>
        <time>2010-06-05T14:06:16Z</time>
      </trkpt>
      <trkpt lat="48.69817" lon="7.32641">
        <ele>400.594086</ele>
        <time>2010-06-05T14:06:20Z</time>
      </trkpt>
      <trkpt lat="48.69827" lon="7.32633">
        <ele>398.781586</ele>
        <time>2010-06-05T14:06:24Z</time>
      </trkpt>
      <trkpt lat="48.69836" lon="7.32624">
        <ele>398.531586</ele>
        <time>2010-06-05T14:06:28Z</time>
      </trkpt>
      <trkpt lat="48.69844" lon="7.32618">
        <ele>399.305023</ele>
        <time>2010-06-05T14:06:32Z</time>
      </trkpt>
      <trkpt lat="48.69854" lon="7.32612">
        <ele>396.406586</ele>
        <time>2010-06-05T14:06:36Z</time>
      </trkpt>
      <trkpt lat="48.69864" lon="7.3261">
        <ele>394.383148</ele>
        <time>2010-06-05T14:06:41Z</time>
      </trkpt>
      <trkpt lat="48.6987" lon="7.326">
        <ele>390.109711</ele>
        <time>2010-06-05T14:06:45Z</time>
      </trkpt>
      <trkpt lat="48.6988" lon="7.32594">
        <ele>392.015961</ele>
        <time>2010-06-05T14:06:49Z</time>
      </trkpt>
      <trkpt lat="48.69888" lon="7.32587">
        <ele>389.164398</ele>
        <time>2010-06-05T14:06:54Z</time>
      </trkpt>
      <trkpt lat="48.69897" lon="7.3258">
        <ele>390.344086</ele>
        <time>2010-06-05T14:06:59Z</time>
      </trkpt>
      <trkpt lat="48.69904" lon="7.32568">
        <ele>391.453461</ele>
        <time>2010-06-05T14:07:04Z</time>
      </trkpt>
      <trkpt lat="48.6991" lon="7.32557">
        <ele>394.000336</ele>
        <time>2010-06-05T14:07:09Z</time>
      </trkpt>
      <trkpt lat="48.69917" lon="7.32545">
        <ele>393.109711</ele>
        <time>2010-06-05T14:07:15Z</time>
      </trkpt>
      <trkpt lat="48.69924" lon="7.32533">
        <ele>392.226898</ele>
        <time>2010-06-05T14:07:20Z</time>
      </trkpt>
      <trkpt lat="48.69931" lon="7.32523">
        <ele>391.140961</ele>
        <time>2010-06-05T14:07:25Z</time>
      </trkpt>
      <trkpt lat="48.69942" lon="7.32519">
        <ele>392.953461</ele>
        <time>2010-06-05T14:07:31Z</time>
      </trkpt>
      <trkpt lat="48.69951" lon="7.32515">
        <ele>392.640961</ele>
        <time>2010-06-05T14:07:37Z</time>
      </trkpt>
      <trkpt lat="48.69958" lon="7.32503">
        <ele>391.844086</ele>
        <time>2010-06-05T14:07:41Z</time>
      </trkpt>
      <trkpt lat="48.69966" lon="7.32495">
        <ele>395.219086</ele>
        <time>2010-06-05T14:07:44Z</time>
      </trkpt>
      <trkpt lat="48.69973" lon="7.32484">
        <ele>397.539398</ele>
        <time>2010-06-05T14:07:48Z</time>
      </trkpt>
      <trkpt lat="48.69982" lon="7.32475">
        <ele>396.906586</ele>
        <time>2010-06-05T14:07:51Z</time>
      </trkpt>
      <trkpt lat="48.69991" lon="7.32465">
        <ele>394.953461</ele>
        <time>2010-06-05T14:07:56Z</time>
      </trkpt>
      <trkpt lat="48.70001" lon="7.32459">
        <ele>393.281586</ele>
        <time>2010-06-05T14:08:00Z</time>
      </trkpt>
      <trkpt lat="48.7001" lon="7.32458">
        <ele>393.344086</ele>
        <time>2010-06-05T14:08:03Z</time>
      </trkpt>
      <trkpt lat="48.70017" lon="7.32448">
        <ele>393.211273</ele>
        <time>2010-06-05T14:08:08Z</time>
      </trkpt>
      <trkpt lat="48.70024" lon="7.3244">
        <ele>395.289398</ele>
        <time>2010-06-05T14:08:14Z</time>
      </trkpt>
      <trkpt lat="48.70031" lon="7.32429">
        <ele>397.273773</ele>
        <time>2010-06-05T14:08:19Z</time>
      </trkpt>
      <trkpt lat="48.70039" lon="7.32419">
        <ele>398.539398</ele>
        <time>2010-06-05T14:08:25Z</time>
      </trkpt>
      <trkpt lat="48.70048" lon="7.32411">
        <ele>399.930023</ele>
        <time>2010-06-05T14:08:31Z</time>
      </trkpt>
      <trkpt lat="48.70055" lon="7.32403">
        <ele>401.242523</ele>
        <time>2010-06-05T14:08:36Z</time>
      </trkpt>
      <trkpt lat="48.70066" lon="7.32395">
        <ele>401.203461</ele>
        <time>2010-06-05T14:08:41Z</time>
      </trkpt>
      <trkpt lat="48.70078" lon="7.3239">
        <ele>401.562836</ele>
        <time>2010-06-05T14:08:45Z</time>
      </trkpt>
      <trkpt lat="48.70086" lon="7.32381">
        <ele>401.945648</ele>
        <time>2010-06-05T14:08:50Z</time>
      </trkpt>
      <trkpt lat="48.70096" lon="7.32374">
        <ele>401.508148</ele>
        <time>2010-06-05T14:08:54Z</time>
      </trkpt>
      <trkpt lat="48.70104" lon="7.32367">
        <ele>402.265961</ele>
        <time>2010-06-05T14:08:58Z</time>
      </trkpt>
      <trkpt lat="48.70114" lon="7.3236">
        <ele>402.430023</ele>
        <time>2010-06-05T14:09:02Z</time>
      </trkpt>
      <trkpt lat="48.70121" lon="7.32347">
        <ele>404.156586</ele>
        <time>2010-06-05T14:09:06Z</time>
      </trkpt>
      <trkpt lat="48.7013" lon="7.32336">
        <ele>404.531586</ele>
        <time>2010-06-05T14:09:10Z</time>
      </trkpt>
      <trkpt lat="48.70138" lon="7.32329">
        <ele>403.508148</ele>
        <time>2010-06-05T14:09:13Z</time>
      </trkpt>
      <trkpt lat="48.70147" lon="7.32321">
        <ele>402.812836</ele>
        <time>2010-06-05T14:09:17Z</time>
      </trkpt>
      <trkpt lat="48.70155" lon="7.32313">
        <ele>402.109711</ele>
        <time>2010-06-05T14:09:22Z</time>
      </trkpt>
      <trkpt lat="48.70163" lon="7.32309">
        <ele>401.883148</ele>
        <time>2010-06-05T14:09:27Z</time>
      </trkpt>
      <trkpt lat="48.70173" lon="7.32306">
        <ele>402.609711</ele>
        <time>2010-06-05T14:09:31Z</time>
      </trkpt>
      <trkpt lat="48.70182" lon="7.32304">
        <ele>400.812836</ele>
        <time>2010-06-05T14:09:35Z</time>
      </trkpt>
      <trkpt lat="48.70192" lon="7.32304">
        <ele>400.867523</ele>
        <time>2010-06-05T14:09:42Z</time>
      </trkpt>
      <trkpt lat="48.70198" lon="7.32297">
        <ele>405.875336</ele>
        <time>2010-06-05T14:09:49Z</time>
      </trkpt>
      <trkpt lat="48.70208" lon="7.32294">
        <ele>404.851898</ele>
        <time>2010-06-05T14:09:56Z</time>
      </trkpt>
      <trkpt lat="48.70216" lon="7.32289">
        <ele>406.015961</ele>
        <time>2010-06-05T14:10:04Z</time>
      </trkpt>
      <trkpt lat="48.70226" lon="7.32287">
        <ele>406.805023</ele>
        <time>2010-06-05T14:10:15Z</time>
      </trkpt>
      <trkpt lat="48.70235" lon="7.32284">
        <ele>403.773773</ele>
        <time>2010-06-05T14:10:24Z</time>
      </trkpt>
      <trkpt lat="48.70245" lon="7.32282">
        <ele>401.719086</ele>
        <time>2010-06-05T14:10:32Z</time>
      </trkpt>
      <trkpt lat="48.70255" lon="7.32281">
        <ele>402.078461</ele>
        <time>2010-06-05T14:10:42Z</time>
      </trkpt>
      <trkpt lat="48.70263" lon="7.32275">
        <ele>403.687836</ele>
        <time>2010-06-05T14:10:50Z</time>
      </trkpt>
      <trkpt lat="48.70269" lon="7.32263">
        <ele>407.047211</ele>
        <time>2010-06-05T14:11:01Z</time>
      </trkpt>
      <trkpt lat="48.70277" lon="7.32258">
        <ele>410.164398</ele>
        <time>2010-06-05T14:11:09Z</time>
      </trkpt>
      <trkpt lat="48.70287" lon="7.32256">
        <ele>412.945648</ele>
        <time>2010-06-05T14:11:17Z</time>
      </trkpt>
      <trkpt lat="48.70296" lon="7.32254">
        <ele>414.758148</ele>
        <time>2010-06-05T14:11:25Z</time>
      </trkpt>
      <trkpt lat="48.70305" lon="7.32249">
        <ele>416.414398</ele>
        <time>2010-06-05T14:11:34Z</time>
      </trkpt>
      <trkpt lat="48.70313" lon="7.32243">
        <ele>419.476898</ele>
        <time>2010-06-05T14:11:42Z</time>
      </trkpt>
      <trkpt lat="48.7032" lon="7.32236">
        <ele>421.531586</ele>
        <time>2010-06-05T14:11:51Z</time>
      </trkpt>
      <trkpt lat="48.70329" lon="7.32234">
        <ele>418.875336</ele>
        <time>2010-06-05T14:11:57Z</time>
      </trkpt>
      <trkpt lat="48.70338" lon="7.32231">
        <ele>418.055023</ele>
        <time>2010-06-05T14:12:05Z</time>
      </trkpt>
      <trkpt lat="48.70345" lon="7.32222">
        <ele>420.367523</ele>
        <time>2010-06-05T14:12:13Z</time>
      </trkpt>
      <trkpt lat="48.70354" lon="7.3222">
        <ele>422.055023</ele>
        <time>2010-06-05T14:12:20Z</time>
      </trkpt>
      <trkpt lat="48.70361" lon="7.32212">
        <ele>424.390961</ele>
        <time>2010-06-05T14:12:29Z</time>
      </trkpt>
      <trkpt lat="48.70369" lon="7.32199">
        <ele>425.586273</ele>
        <time>2010-06-05T14:12:36Z</time>
      </trkpt>
      <trkpt lat="48.70378" lon="7.32195">
        <ele>427.234711</ele>
        <time>2010-06-05T14:12:43Z</time>
      </trkpt>
      <trkpt lat="48.70386" lon="7.32188">
        <ele>428.015961</ele>
        <time>2010-06-05T14:12:49Z</time>
      </trkpt>
      <trkpt lat="48.70396" lon="7.32187">
        <ele>428.398773</ele>
        <time>2010-06-05T14:12:54Z</time>
      </trkpt>
      <trkpt lat="48.70406" lon="7.32178">
        <ele>430.398773</ele>
        <time>2010-06-05T14:13:01Z</time>
      </trkpt>
      <trkpt lat="48.70416" lon="7.32174">
        <ele>430.562836</ele>
        <time>2010-06-05T14:13:06Z</time>
      </trkpt>
      <trkpt lat="48.70424" lon="7.32166">
        <ele>431.539398</ele>
        <time>2010-06-05T14:13:12Z</time>
      </trkpt>
      <trkpt lat="48.70432" lon="7.32159">
        <ele>432.133148</ele>
        <time>2010-06-05T14:13:17Z</time>
      </trkpt>
      <trkpt lat="48.70441" lon="7.32153">
        <ele>432.734711</ele>
        <time>2010-06-05T14:13:22Z</time>
      </trkpt>
      <trkpt lat="48.7045" lon="7.32145">
        <ele>433.672211</ele>
        <time>2010-06-05T14:13:28Z</time>
      </trkpt>
      <trkpt lat="48.7046" lon="7.32138">
        <ele>434.211273</ele>
        <time>2010-06-05T14:13:34Z</time>
      </trkpt>
      <trkpt lat="48.70469" lon="7.32134">
        <ele>433.180023</ele>
        <time>2010-06-05T14:13:38Z</time>
      </trkpt>
      <trkpt lat="48.70478" lon="7.3213">
        <ele>431.695648</ele>
        <time>2010-06-05T14:13:42Z</time>
      </trkpt>
      <trkpt lat="48.70487" lon="7.32125">
        <ele>433.648773</ele>
        <time>2010-06-05T14:13:47Z</time>
      </trkpt>
      <trkpt lat="48.70494" lon="7.32117">
        <ele>434.226898</ele>
        <time>2010-06-05T14:13:54Z</time>
      </trkpt>
      <trkpt lat="48.70505" lon="7.32113">
        <ele>435.484711</ele>
        <time>2010-06-05T14:14:00Z</time>
      </trkpt>
      <trkpt lat="48.70513" lon="7.32108">
        <ele>437.922211</ele>
        <time>2010-06-05T14:14:06Z</time>
      </trkpt>
      <trkpt lat="48.70522" lon="7.32104">
        <ele>439.430023</ele>
        <time>2010-06-05T14:14:13Z</time>
      </trkpt>
      <trkpt lat="48.70531" lon="7.32098">
        <ele>441.383148</ele>
        <time>2010-06-05T14:14:23Z</time>
      </trkpt>
      <trkpt lat="48.7054" lon="7.32094">
        <ele>442.890961</ele>
        <time>2010-06-05T14:14:32Z</time>
      </trkpt>
      <trkpt lat="48.70549" lon="7.32097">
        <ele>442.390961</ele>
        <time>2010-06-05T14:14:38Z</time>
      </trkpt>
      <trkpt lat="48.70559" lon="7.32098">
        <ele>445.711273</ele>
        <time>2010-06-05T14:14:47Z</time>
      </trkpt>
      <trkpt lat="48.70567" lon="7.32092">
        <ele>449.500336</ele>
        <time>2010-06-05T14:14:56Z</time>
      </trkpt>
      <trkpt lat="48.70575" lon="7.32083">
        <ele>454.586273</ele>
        <time>2010-06-05T14:15:03Z</time>
      </trkpt>
      <trkpt lat="48.7058" lon="7.32073">
        <ele>456.961273</ele>
        <time>2010-06-05T14:15:10Z</time>
      </trkpt>
      <trkpt lat="48.70588" lon="7.32071">
        <ele>460.750336</ele>
        <time>2010-06-05T14:15:18Z</time>
      </trkpt>
      <trkpt lat="48.70595" lon="7.3206">
        <ele>464.476898</ele>
        <time>2010-06-05T14:15:28Z</time>
      </trkpt>
      <trkpt lat="48.70602" lon="7.32051">
        <ele>467.265961</ele>
        <time>2010-06-05T14:15:38Z</time>
      </trkpt>
      <trkpt lat="48.7061" lon="7.32045">
        <ele>471.258148</ele>
        <time>2010-06-05T14:15:48Z</time>
      </trkpt>
      <trkpt lat="48.70618" lon="7.32039">
        <ele>474.148773</ele>
        <time>2010-06-05T14:15:56Z</time>
      </trkpt>
      <trkpt lat="48.70626" lon="7.32032">
        <ele>476.930023</ele>
        <time>2010-06-05T14:16:06Z</time>
      </trkpt>
      <trkpt lat="48.70634" lon="7.3202">
        <ele>478.469086</ele>
        <time>2010-06-05T14:16:13Z</time>
      </trkpt>
      <trkpt lat="48.7064" lon="7.32009">
        <ele>478.234711</ele>
        <time>2010-06-05T14:16:22Z</time>
      </trkpt>
      <trkpt lat="48.70645" lon="7.31998">
        <ele>477.469086</ele>
        <time>2010-06-05T14:16:33Z</time>
      </trkpt>
      <trkpt lat="48.70654" lon="7.31991">
        <ele>477.140961</ele>
        <time>2010-06-05T14:16:44Z</time>
      </trkpt>
      <trkpt lat="48.70662" lon="7.31983">
        <ele>476.414398</ele>
        <time>2010-06-05T14:17:11Z</time>
      </trkpt>
      <trkpt lat="48.70669" lon="7.31974">
        <ele>476.765961</ele>
        <time>2010-06-05T14:17:20Z</time>
      </trkpt>
      <trkpt lat="48.70675" lon="7.31962">
        <ele>476.508148</ele>
        <time>2010-06-05T14:17:28Z</time>
      </trkpt>
      <trkpt lat="48.70681" lon="7.31953">
        <ele>477.133148</ele>
        <time>2010-06-05T14:17:40Z</time>
      </trkpt>
      <trkpt lat="48.7069" lon="7.31951">
        <ele>479.164398</ele>
        <time>2010-06-05T14:18:23Z</time>
      </trkpt>
      <trkpt lat="48.70699" lon="7.31944">
        <ele>477.703461</ele>
        <time>2010-06-05T14:19:01Z</time>
      </trkpt>
      <trkpt lat="48.70704" lon="7.31933">
        <ele>475.508148</ele>
        <time>2010-06-05T14:20:04Z</time>
      </trkpt>
      <trkpt lat="48.70713" lon="7.31932">
        <ele>479.086273</ele>
        <time>2010-06-05T14:20:15Z</time>
      </trkpt>
      <trkpt lat="48.7072" lon="7.31924">
        <ele>480.914398</ele>
        <time>2010-06-05T14:20:26Z</time>
      </trkpt>
      <trkpt lat="48.70728" lon="7.31921">
        <ele>485.555023</ele>
        <time>2010-06-05T14:20:34Z</time>
      </trkpt>
      <trkpt lat="48.70732" lon="7.3191">
        <ele>489.031586</ele>
        <time>2010-06-05T14:20:40Z</time>
      </trkpt>
      <trkpt lat="48.70733" lon="7.31897">
        <ele>491.023773</ele>
        <time>2010-06-05T14:20:47Z</time>
      </trkpt>
      <trkpt lat="48.70735" lon="7.31885">
        <ele>494.422211</ele>
        <time>2010-06-05T14:20:56Z</time>
      </trkpt>
      <trkpt lat="48.70742" lon="7.31875">
        <ele>492.336273</ele>
        <time>2010-06-05T14:30:39Z</time>
      </trkpt>
      <trkpt lat="48.7075" lon="7.31869">
        <ele>492.375336</ele>
        <time>2010-06-05T14:30:44Z</time>
      </trkpt>
      <trkpt lat="48.70761" lon="7.31863">
        <ele>492.133148</ele>
        <time>2010-06-05T14:30:50Z</time>
      </trkpt>
      <trkpt lat="48.70769" lon="7.31856">
        <ele>490.930023</ele>
        <time>2010-06-05T14:30:53Z</time>
      </trkpt>
      <trkpt lat="48.7078" lon="7.31847">
        <ele>490.398773</ele>
        <time>2010-06-05T14:30:56Z</time>
      </trkpt>
      <trkpt lat="48.7079" lon="7.31838">
        <ele>489.070648</ele>
        <time>2010-06-05T14:31:00Z</time>
      </trkpt>
      <trkpt lat="48.70799" lon="7.31833">
        <ele>488.062836</ele>
        <time>2010-06-05T14:31:04Z</time>
      </trkpt>
      <trkpt lat="48.70805" lon="7.31822">
        <ele>488.570648</ele>
        <time>2010-06-05T14:31:08Z</time>
      </trkpt>
      <trkpt lat="48.70815" lon="7.31816">
        <ele>489.031586</ele>
        <time>2010-06-05T14:31:11Z</time>
      </trkpt>
      <trkpt lat="48.70823" lon="7.31807">
        <ele>488.781586</ele>
        <time>2010-06-05T14:31:15Z</time>
      </trkpt>
      <trkpt lat="48.70832" lon="7.31797">
        <ele>488.289398</ele>
        <time>2010-06-05T14:31:20Z</time>
      </trkpt>
      <trkpt lat="48.70842" lon="7.31794">
        <ele>488.672211</ele>
        <time>2010-06-05T14:31:24Z</time>
      </trkpt>
      <trkpt lat="48.70852" lon="7.31799">
        <ele>487.703461</ele>
        <time>2010-06-05T14:31:28Z</time>
      </trkpt>
      <trkpt lat="48.70861" lon="7.31798">
        <ele>487.562836</ele>
        <time>2010-06-05T14:31:33Z</time>
      </trkpt>
      <trkpt lat="48.70873" lon="7.31795">
        <ele>486.617523</ele>
        <time>2010-06-05T14:31:36Z</time>
      </trkpt>
      <trkpt lat="48.70882" lon="7.31791">
        <ele>485.070648</ele>
        <time>2010-06-05T14:31:38Z</time>
      </trkpt>
      <trkpt lat="48.70891" lon="7.31795">
        <ele>482.570648</ele>
        <time>2010-06-05T14:31:40Z</time>
      </trkpt>
      <trkpt lat="48.70901" lon="7.31805">
        <ele>478.367523</ele>
        <time>2010-06-05T14:31:42Z</time>
      </trkpt>
      <trkpt lat="48.70908" lon="7.31816">
        <ele>477.875336</ele>
        <time>2010-06-05T14:31:44Z</time>
      </trkpt>
      <trkpt lat="48.70915" lon="7.31831">
        <ele>476.492523</ele>
        <time>2010-06-05T14:31:46Z</time>
      </trkpt>
      <trkpt lat="48.70919" lon="7.31843">
        <ele>475.758148</ele>
        <time>2010-06-05T14:31:48Z</time>
      </trkpt>
      <trkpt lat="48.70924" lon="7.31855">
        <ele>474.648773</ele>
        <time>2010-06-05T14:31:50Z</time>
      </trkpt>
      <trkpt lat="48.70929" lon="7.31868">
        <ele>473.531586</ele>
        <time>2010-06-05T14:31:52Z</time>
      </trkpt>
      <trkpt lat="48.70933" lon="7.31884">
        <ele>471.344086</ele>
        <time>2010-06-05T14:31:54Z</time>
      </trkpt>
      <trkpt lat="48.70939" lon="7.319">
        <ele>469.625336</ele>
        <time>2010-06-05T14:31:56Z</time>
      </trkpt>
      <trkpt lat="48.70944" lon="7.31914">
        <ele>468.351898</ele>
        <time>2010-06-05T14:31:58Z</time>
      </trkpt>
      <trkpt lat="48.7095" lon="7.3193">
        <ele>465.797211</ele>
        <time>2010-06-05T14:32:01Z</time>
      </trkpt>
      <trkpt lat="48.70954" lon="7.31942">
        <ele>463.750336</ele>
        <time>2010-06-05T14:32:03Z</time>
      </trkpt>
      <trkpt lat="48.70959" lon="7.31955">
        <ele>461.367523</ele>
        <time>2010-06-05T14:32:05Z</time>
      </trkpt>
      <trkpt lat="48.70965" lon="7.31971">
        <ele>458.390961</ele>
        <time>2010-06-05T14:32:07Z</time>
      </trkpt>
      <trkpt lat="48.70972" lon="7.31982">
        <ele>455.242523</ele>
        <time>2010-06-05T14:32:09Z</time>
      </trkpt>
      <trkpt lat="48.70979" lon="7.31993">
        <ele>452.570648</ele>
        <time>2010-06-05T14:32:11Z</time>
      </trkpt>
      <trkpt lat="48.70992" lon="7.32007">
        <ele>457.219086</ele>
        <time>2010-06-05T14:32:13Z</time>
      </trkpt>
      <trkpt lat="48.71" lon="7.32019">
        <ele>458.187836</ele>
        <time>2010-06-05T14:32:15Z</time>
      </trkpt>
      <trkpt lat="48.71005" lon="7.32033">
        <ele>457.633148</ele>
        <time>2010-06-05T14:32:17Z</time>
      </trkpt>
      <trkpt lat="48.71014" lon="7.32044">
        <ele>457.164398</ele>
        <time>2010-06-05T14:32:19Z</time>
      </trkpt>
      <trkpt lat="48.71019" lon="7.32056">
        <ele>456.469086</ele>
        <time>2010-06-05T14:32:21Z</time>
      </trkpt>
      <trkpt lat="48.71027" lon="7.32069">
        <ele>454.086273</ele>
        <time>2010-06-05T14:32:24Z</time>
      </trkpt>
      <trkpt lat="48.71034" lon="7.32078">
        <ele>452.109711</ele>
        <time>2010-06-05T14:32:27Z</time>
      </trkpt>
      <trkpt lat="48.71043" lon="7.32084">
        <ele>450.555023</ele>
        <time>2010-06-05T14:32:29Z</time>
      </trkpt>
      <trkpt lat="48.71053" lon="7.32088">
        <ele>451.875336</ele>
        <time>2010-06-05T14:32:31Z</time>
      </trkpt>
      <trkpt lat="48.71061" lon="7.32097">
        <ele>452.625336</ele>
        <time>2010-06-05T14:32:33Z</time>
      </trkpt>
      <trkpt lat="48.71071" lon="7.32107">
        <ele>451.094086</ele>
        <time>2010-06-05T14:32:35Z</time>
      </trkpt>
      <trkpt lat="48.71079" lon="7.32116">
        <ele>449.305023</ele>
        <time>2010-06-05T14:32:37Z</time>
      </trkpt>
      <trkpt lat="48.71088" lon="7.32124">
        <ele>446.234711</ele>
        <time>2010-06-05T14:32:41Z</time>
      </trkpt>
      <trkpt lat="48.711" lon="7.32127">
        <ele>446.140961</ele>
        <time>2010-06-05T14:32:44Z</time>
      </trkpt>
      <trkpt lat="48.71109" lon="7.32125">
        <ele>446.297211</ele>
        <time>2010-06-05T14:32:46Z</time>
      </trkpt>
      <trkpt lat="48.71118" lon="7.32127">
        <ele>448.273773</ele>
        <time>2010-06-05T14:32:48Z</time>
      </trkpt>
      <trkpt lat="48.71127" lon="7.32131">
        <ele>446.703461</ele>
        <time>2010-06-05T14:32:50Z</time>
      </trkpt>
      <trkpt lat="48.71138" lon="7.32138">
        <ele>448.180023</ele>
        <time>2010-06-05T14:32:53Z</time>
      </trkpt>
      <trkpt lat="48.71141" lon="7.32151">
        <ele>446.203461</ele>
        <time>2010-06-05T14:32:56Z</time>
      </trkpt>
      <trkpt lat="48.71137" lon="7.32166">
        <ele>445.133148</ele>
        <time>2010-06-05T14:32:59Z</time>
      </trkpt>
      <trkpt lat="48.71133" lon="7.32183">
        <ele>443.094086</ele>
        <time>2010-06-05T14:33:02Z</time>
      </trkpt>
      <trkpt lat="48.71131" lon="7.32197">
        <ele>441.086273</ele>
        <time>2010-06-05T14:33:04Z</time>
      </trkpt>
      <trkpt lat="48.71125" lon="7.32212">
        <ele>438.562836</ele>
        <time>2010-06-05T14:33:06Z</time>
      </trkpt>
      <trkpt lat="48.71119" lon="7.32229">
        <ele>436.297211</ele>
        <time>2010-06-05T14:33:08Z</time>
      </trkpt>
      <trkpt lat="48.71117" lon="7.32245">
        <ele>434.609711</ele>
        <time>2010-06-05T14:33:10Z</time>
      </trkpt>
      <trkpt lat="48.71113" lon="7.3226">
        <ele>431.914398</ele>
        <time>2010-06-05T14:33:12Z</time>
      </trkpt>
      <trkpt lat="48.71108" lon="7.32273">
        <ele>429.672211</ele>
        <time>2010-06-05T14:33:14Z</time>
      </trkpt>
      <trkpt lat="48.71109" lon="7.32289">
        <ele>426.086273</ele>
        <time>2010-06-05T14:33:17Z</time>
      </trkpt>
      <trkpt lat="48.71103" lon="7.32305">
        <ele>423.578461</ele>
        <time>2010-06-05T14:33:21Z</time>
      </trkpt>
      <trkpt lat="48.711" lon="7.32319">
        <ele>420.914398</ele>
        <time>2010-06-05T14:33:24Z</time>
      </trkpt>
      <trkpt lat="48.71093" lon="7.32328">
        <ele>419.164398</ele>
        <time>2010-06-05T14:33:26Z</time>
      </trkpt>
      <trkpt lat="48.71085" lon="7.32338">
        <ele>416.609711</ele>
        <time>2010-06-05T14:33:29Z</time>
      </trkpt>
      <trkpt lat="48.71078" lon="7.32354">
        <ele>414.437836</ele>
        <time>2010-06-05T14:33:31Z</time>
      </trkpt>
      <trkpt lat="48.71069" lon="7.32369">
        <ele>412.086273</ele>
        <time>2010-06-05T14:33:33Z</time>
      </trkpt>
      <trkpt lat="48.71059" lon="7.32383">
        <ele>410.039398</ele>
        <time>2010-06-05T14:33:35Z</time>
      </trkpt>
      <trkpt lat="48.7105" lon="7.32398">
        <ele>407.711273</ele>
        <time>2010-06-05T14:33:37Z</time>
      </trkpt>
      <trkpt lat="48.71043" lon="7.32416">
        <ele>405.555023</ele>
        <time>2010-06-05T14:33:39Z</time>
      </trkpt>
      <trkpt lat="48.71029" lon="7.32429">
        <ele>403.734711</ele>
        <time>2010-06-05T14:33:41Z</time>
      </trkpt>
      <trkpt lat="48.71021" lon="7.32439">
        <ele>401.711273</ele>
        <time>2010-06-05T14:33:43Z</time>
      </trkpt>
      <trkpt lat="48.71012" lon="7.32449">
        <ele>399.328461</ele>
        <time>2010-06-05T14:33:45Z</time>
      </trkpt>
      <trkpt lat="48.71004" lon="7.32463">
        <ele>395.976898</ele>
        <time>2010-06-05T14:33:47Z</time>
      </trkpt>
      <trkpt lat="48.70994" lon="7.32472">
        <ele>394.367523</ele>
        <time>2010-06-05T14:33:49Z</time>
      </trkpt>
      <trkpt lat="48.70982" lon="7.32484">
        <ele>392.578461</ele>
        <time>2010-06-05T14:33:51Z</time>
      </trkpt>
      <trkpt lat="48.70975" lon="7.32497">
        <ele>391.805023</ele>
        <time>2010-06-05T14:33:53Z</time>
      </trkpt>
      <trkpt lat="48.70968" lon="7.32505">
        <ele>390.289398</ele>
        <time>2010-06-05T14:33:55Z</time>
      </trkpt>
      <trkpt lat="48.70961" lon="7.32516">
        <ele>389.476898</ele>
        <time>2010-06-05T14:33:57Z</time>
      </trkpt>
      <trkpt lat="48.70955" lon="7.32526">
        <ele>388.023773</ele>
        <time>2010-06-05T14:33:59Z</time>
      </trkpt>
      <trkpt lat="48.70949" lon="7.32527">
        <ele>380.125336</ele>
        <time>2010-06-05T14:34:00Z</time>
      </trkpt>
      <trkpt lat="48.70942" lon="7.32535">
        <ele>376.484711</ele>
        <time>2010-06-05T14:34:02Z</time>
      </trkpt>
      <trkpt lat="48.70937" lon="7.32548">
        <ele>382.008148</ele>
        <time>2010-06-05T14:34:04Z</time>
      </trkpt>
      <trkpt lat="48.70932" lon="7.32565">
        <ele>384.180023</ele>
        <time>2010-06-05T14:34:07Z</time>
      </trkpt>
      <trkpt lat="48.70927" lon="7.32577">
        <ele>385.562836</ele>
        <time>2010-06-05T14:34:09Z</time>
      </trkpt>
      <trkpt lat="48.70923" lon="7.32591">
        <ele>385.758148</ele>
        <time>2010-06-05T14:34:11Z</time>
      </trkpt>
      <trkpt lat="48.70917" lon="7.32606">
        <ele>386.320648</ele>
        <time>2010-06-05T14:34:13Z</time>
      </trkpt>
      <trkpt lat="48.70911" lon="7.3262">
        <ele>385.609711</ele>
        <time>2010-06-05T14:34:15Z</time>
      </trkpt>
      <trkpt lat="48.70906" lon="7.32635">
        <ele>386.453461</ele>
        <time>2010-06-05T14:34:17Z</time>
      </trkpt>
      <trkpt lat="48.70902" lon="7.32649">
        <ele>387.336273</ele>
        <time>2010-06-05T14:34:19Z</time>
      </trkpt>
      <trkpt lat="48.70898" lon="7.32662">
        <ele>385.062836</ele>
        <time>2010-06-05T14:34:21Z</time>
      </trkpt>
      <trkpt lat="48.70894" lon="7.32675">
        <ele>383.859711</ele>
        <time>2010-06-05T14:34:23Z</time>
      </trkpt>
      <trkpt lat="48.70891" lon="7.32691">
        <ele>383.930023</ele>
        <time>2010-06-05T14:34:25Z</time>
      </trkpt>
      <trkpt lat="48.70889" lon="7.32707">
        <ele>383.953461</ele>
        <time>2010-06-05T14:34:27Z</time>
      </trkpt>
      <trkpt lat="48.70886" lon="7.32722">
        <ele>384.023773</ele>
        <time>2010-06-05T14:34:29Z</time>
      </trkpt>
      <trkpt lat="48.70886" lon="7.32737">
        <ele>383.758148</ele>
        <time>2010-06-05T14:34:31Z</time>
      </trkpt>
      <trkpt lat="48.70886" lon="7.32752">
        <ele>383.930023</ele>
        <time>2010-06-05T14:34:33Z</time>
      </trkpt>
      <trkpt lat="48.70889" lon="7.32766">
        <ele>385.086273</ele>
        <time>2010-06-05T14:34:35Z</time>
      </trkpt>
      <trkpt lat="48.70894" lon="7.3278">
        <ele>386.320648</ele>
        <time>2010-06-05T14:34:37Z</time>
      </trkpt>
      <trkpt lat="48.709" lon="7.32793">
        <ele>387.976898</ele>
        <time>2010-06-05T14:34:39Z</time>
      </trkpt>
      <trkpt lat="48.70907" lon="7.32803">
        <ele>389.242523</ele>
        <time>2010-06-05T14:34:41Z</time>
      </trkpt>
      <trkpt lat="48.70918" lon="7.32815">
        <ele>397.383148</ele>
        <time>2010-06-05T14:34:43Z</time>
      </trkpt>
      <trkpt lat="48.70927" lon="7.32826">
        <ele>406.476898</ele>
        <time>2010-06-05T14:34:45Z</time>
      </trkpt>
      <trkpt lat="48.70938" lon="7.32834">
        <ele>410.164398</ele>
        <time>2010-06-05T14:34:47Z</time>
      </trkpt>
      <trkpt lat="48.70949" lon="7.32842">
        <ele>410.351898</ele>
        <time>2010-06-05T14:34:49Z</time>
      </trkpt>
      <trkpt lat="48.70961" lon="7.32849">
        <ele>412.937836</ele>
        <time>2010-06-05T14:34:51Z</time>
      </trkpt>
      <trkpt lat="48.70971" lon="7.32857">
        <ele>415.976898</ele>
        <time>2010-06-05T14:34:53Z</time>
      </trkpt>
      <trkpt lat="48.70979" lon="7.32866">
        <ele>414.242523</ele>
        <time>2010-06-05T14:34:55Z</time>
      </trkpt>
      <trkpt lat="48.70987" lon="7.32876">
        <ele>413.797211</ele>
        <time>2010-06-05T14:34:57Z</time>
      </trkpt>
      <trkpt lat="48.70996" lon="7.3289">
        <ele>412.734711</ele>
        <time>2010-06-05T14:35:00Z</time>
      </trkpt>
      <trkpt lat="48.71005" lon="7.32903">
        <ele>411.523773</ele>
        <time>2010-06-05T14:35:03Z</time>
      </trkpt>
      <trkpt lat="48.71015" lon="7.32916">
        <ele>411.055023</ele>
        <time>2010-06-05T14:35:06Z</time>
      </trkpt>
      <trkpt lat="48.71023" lon="7.32926">
        <ele>411.039398</ele>
        <time>2010-06-05T14:35:08Z</time>
      </trkpt>
      <trkpt lat="48.71031" lon="7.32936">
        <ele>409.453461</ele>
        <time>2010-06-05T14:35:10Z</time>
      </trkpt>
      <trkpt lat="48.71038" lon="7.32948">
        <ele>407.633148</ele>
        <time>2010-06-05T14:35:12Z</time>
      </trkpt>
      <trkpt lat="48.71047" lon="7.32959">
        <ele>406.984711</ele>
        <time>2010-06-05T14:35:14Z</time>
      </trkpt>
      <trkpt lat="48.71055" lon="7.32971">
        <ele>405.961273</ele>
        <time>2010-06-05T14:35:16Z</time>
      </trkpt>
      <trkpt lat="48.71064" lon="7.32987">
        <ele>407.398773</ele>
        <time>2010-06-05T14:35:18Z</time>
      </trkpt>
      <trkpt lat="48.71071" lon="7.33002">
        <ele>406.719086</ele>
        <time>2010-06-05T14:35:20Z</time>
      </trkpt>
      <trkpt lat="48.71079" lon="7.33019">
        <ele>405.258148</ele>
        <time>2010-06-05T14:35:22Z</time>
      </trkpt>
      <trkpt lat="48.71087" lon="7.33038">
        <ele>403.890961</ele>
        <time>2010-06-05T14:35:24Z</time>
      </trkpt>
      <trkpt lat="48.71095" lon="7.33058">
        <ele>402.406586</ele>
        <time>2010-06-05T14:35:26Z</time>
      </trkpt>
      <trkpt lat="48.71101" lon="7.33074">
        <ele>400.398773</ele>
        <time>2010-06-05T14:35:28Z</time>
      </trkpt>
      <trkpt lat="48.71106" lon="7.33088">
        <ele>399.430023</ele>
        <time>2010-06-05T14:35:30Z</time>
      </trkpt>
      <trkpt lat="48.71113" lon="7.33101">
        <ele>398.398773</ele>
        <time>2010-06-05T14:35:32Z</time>
      </trkpt>
      <trkpt lat="48.7112" lon="7.33115">
        <ele>397.180023</ele>
        <time>2010-06-05T14:35:34Z</time>
      </trkpt>
      <trkpt lat="48.71129" lon="7.33124">
        <ele>395.781586</ele>
        <time>2010-06-05T14:35:36Z</time>
      </trkpt>
      <trkpt lat="48.71134" lon="7.33135">
        <ele>396.172211</ele>
        <time>2010-06-05T14:35:38Z</time>
      </trkpt>
      <trkpt lat="48.71141" lon="7.33147">
        <ele>399.062836</ele>
        <time>2010-06-05T14:35:41Z</time>
      </trkpt>
      <trkpt lat="48.7115" lon="7.33156">
        <ele>402.531586</ele>
        <time>2010-06-05T14:35:46Z</time>
      </trkpt>
      <trkpt lat="48.71158" lon="7.33165">
        <ele>403.914398</ele>
        <time>2010-06-05T14:37:17Z</time>
      </trkpt>
      <trkpt lat="48.71166" lon="7.33168">
        <ele>405.328461</ele>
        <time>2010-06-05T14:37:28Z</time>
      </trkpt>
      <trkpt lat="48.71177" lon="7.3317">
        <ele>405.453461</ele>
        <time>2010-06-05T14:37:34Z</time>
      </trkpt>
      <trkpt lat="48.71185" lon="7.33164">
        <ele>406.672211</ele>
        <time>2010-06-05T14:37:41Z</time>
      </trkpt>
      <trkpt lat="48.71194" lon="7.33161">
        <ele>405.758148</ele>
        <time>2010-06-05T14:37:50Z</time>
      </trkpt>
      <trkpt lat="48.71203" lon="7.33156">
        <ele>407.890961</ele>
        <time>2010-06-05T14:37:59Z</time>
      </trkpt>
      <trkpt lat="48.71214" lon="7.33155">
        <ele>411.570648</ele>
        <time>2010-06-05T14:38:10Z</time>
      </trkpt>
      <trkpt lat="48.71223" lon="7.33147">
        <ele>414.015961</ele>
        <time>2010-06-05T14:38:13Z</time>
      </trkpt>
      <trkpt lat="48.71231" lon="7.33136">
        <ele>416.008148</ele>
        <time>2010-06-05T14:38:16Z</time>
      </trkpt>
      <trkpt lat="48.71242" lon="7.33131">
        <ele>416.234711</ele>
        <time>2010-06-05T14:38:20Z</time>
      </trkpt>
      <trkpt lat="48.71252" lon="7.3313">
        <ele>418.805023</ele>
        <time>2010-06-05T14:38:24Z</time>
      </trkpt>
      <trkpt lat="48.71262" lon="7.33133">
        <ele>418.125336</ele>
        <time>2010-06-05T14:38:28Z</time>
      </trkpt>
      <trkpt lat="48.7127" lon="7.33142">
        <ele>414.726898</ele>
        <time>2010-06-05T14:38:31Z</time>
      </trkpt>
      <trkpt lat="48.7128" lon="7.33148">
        <ele>414.680023</ele>
        <time>2010-06-05T14:38:35Z</time>
      </trkpt>
      <trkpt lat="48.71291" lon="7.33147">
        <ele>417.383148</ele>
        <time>2010-06-05T14:38:38Z</time>
      </trkpt>
      <trkpt lat="48.71301" lon="7.33146">
        <ele>419.828461</ele>
        <time>2010-06-05T14:38:41Z</time>
      </trkpt>
      <trkpt lat="48.71312" lon="7.33144">
        <ele>420.117523</ele>
        <time>2010-06-05T14:38:45Z</time>
      </trkpt>
      <trkpt lat="48.71323" lon="7.33141">
        <ele>419.680023</ele>
        <time>2010-06-05T14:38:48Z</time>
      </trkpt>
      <trkpt lat="48.71335" lon="7.33134">
        <ele>421.500336</ele>
        <time>2010-06-05T14:38:51Z</time>
      </trkpt>
      <trkpt lat="48.71346" lon="7.3313">
        <ele>417.812836</ele>
        <time>2010-06-05T14:38:54Z</time>
      </trkpt>
      <trkpt lat="48.71356" lon="7.33131">
        <ele>416.344086</ele>
        <time>2010-06-05T14:38:57Z</time>
      </trkpt>
      <trkpt lat="48.71365" lon="7.33131">
        <ele>416.219086</ele>
        <time>2010-06-05T14:39:00Z</time>
      </trkpt>
      <trkpt lat="48.71375" lon="7.33127">
        <ele>415.773773</ele>
        <time>2010-06-05T14:39:04Z</time>
      </trkpt>
      <trkpt lat="48.71384" lon="7.33123">
        <ele>420.625336</ele>
        <time>2010-06-05T14:39:08Z</time>
      </trkpt>
      <trkpt lat="48.71392" lon="7.33122">
        <ele>426.226898</ele>
        <time>2010-06-05T14:39:11Z</time>
      </trkpt>
      <trkpt lat="48.71402" lon="7.33124">
        <ele>427.000336</ele>
        <time>2010-06-05T14:39:14Z</time>
      </trkpt>
      <trkpt lat="48.71412" lon="7.3312">
        <ele>428.633148</ele>
        <time>2010-06-05T14:39:20Z</time>
      </trkpt>
      <trkpt lat="48.7142" lon="7.33119">
        <ele>432.656586</ele>
        <time>2010-06-05T14:39:25Z</time>
      </trkpt>
      <trkpt lat="48.7143" lon="7.33121">
        <ele>432.430023</ele>
        <time>2010-06-05T14:39:31Z</time>
      </trkpt>
      <trkpt lat="48.71439" lon="7.33118">
        <ele>432.859711</ele>
        <time>2010-06-05T14:39:35Z</time>
      </trkpt>
      <trkpt lat="48.71448" lon="7.33112">
        <ele>433.039398</ele>
        <time>2010-06-05T14:39:39Z</time>
      </trkpt>
      <trkpt lat="48.71459" lon="7.33114">
        <ele>432.000336</ele>
        <time>2010-06-05T14:39:43Z</time>
      </trkpt>
      <trkpt lat="48.71469" lon="7.33118">
        <ele>429.859711</ele>
        <time>2010-06-05T14:39:46Z</time>
      </trkpt>
      <trkpt lat="48.71479" lon="7.33119">
        <ele>428.711273</ele>
        <time>2010-06-05T14:39:49Z</time>
      </trkpt>
      <trkpt lat="48.71489" lon="7.33119">
        <ele>428.578461</ele>
        <time>2010-06-05T14:39:52Z</time>
      </trkpt>
      <trkpt lat="48.71499" lon="7.33122">
        <ele>425.836273</ele>
        <time>2010-06-05T14:39:55Z</time>
      </trkpt>
      <trkpt lat="48.71509" lon="7.33126">
        <ele>424.734711</ele>
        <time>2010-06-05T14:39:58Z</time>
      </trkpt>
      <trkpt lat="48.71518" lon="7.33129">
        <ele>422.617523</ele>
        <time>2010-06-05T14:40:01Z</time>
      </trkpt>
      <trkpt lat="48.71525" lon="7.33138">
        <ele>418.515961</ele>
        <time>2010-06-05T14:40:03Z</time>
      </trkpt>
      <trkpt lat="48.71538" lon="7.33139">
        <ele>418.664398</ele>
        <time>2010-06-05T14:40:06Z</time>
      </trkpt>
      <trkpt lat="48.71548" lon="7.33144">
        <ele>417.883148</ele>
        <time>2010-06-05T14:40:09Z</time>
      </trkpt>
      <trkpt lat="48.71558" lon="7.33147">
        <ele>416.242523</ele>
        <time>2010-06-05T14:40:12Z</time>
      </trkpt>
      <trkpt lat="48.71568" lon="7.33155">
        <ele>414.390961</ele>
        <time>2010-06-05T14:40:15Z</time>
      </trkpt>
      <trkpt lat="48.71582" lon="7.33163">
        <ele>415.437836</ele>
        <time>2010-06-05T14:40:18Z</time>
      </trkpt>
      <trkpt lat="48.71593" lon="7.33171">
        <ele>411.937836</ele>
        <time>2010-06-05T14:40:21Z</time>
      </trkpt>
      <trkpt lat="48.71603" lon="7.33176">
        <ele>412.633148</ele>
        <time>2010-06-05T14:40:23Z</time>
      </trkpt>
      <trkpt lat="48.71614" lon="7.33186">
        <ele>412.664398</ele>
        <time>2010-06-05T14:40:26Z</time>
      </trkpt>
      <trkpt lat="48.71622" lon="7.33195">
        <ele>415.273773</ele>
        <time>2010-06-05T14:40:29Z</time>
      </trkpt>
      <trkpt lat="48.71629" lon="7.33205">
        <ele>415.578461</ele>
        <time>2010-06-05T14:40:32Z</time>
      </trkpt>
      <trkpt lat="48.71638" lon="7.33214">
        <ele>417.570648</ele>
        <time>2010-06-05T14:40:35Z</time>
      </trkpt>
      <trkpt lat="48.71645" lon="7.33224">
        <ele>420.344086</ele>
        <time>2010-06-05T14:40:39Z</time>
      </trkpt>
      <trkpt lat="48.71655" lon="7.33233">
        <ele>422.226898</ele>
        <time>2010-06-05T14:40:42Z</time>
      </trkpt>
      <trkpt lat="48.71665" lon="7.33236">
        <ele>422.578461</ele>
        <time>2010-06-05T14:40:45Z</time>
      </trkpt>
      <trkpt lat="48.71675" lon="7.33237">
        <ele>425.015961</ele>
        <time>2010-06-05T14:40:49Z</time>
      </trkpt>
      <trkpt lat="48.71685" lon="7.3324">
        <ele>427.390961</ele>
        <time>2010-06-05T14:40:53Z</time>
      </trkpt>
      <trkpt lat="48.71695" lon="7.33244">
        <ele>429.062836</ele>
        <time>2010-06-05T14:40:56Z</time>
      </trkpt>
      <trkpt lat="48.71703" lon="7.33249">
        <ele>428.914398</ele>
        <time>2010-06-05T14:40:59Z</time>
      </trkpt>
      <trkpt lat="48.71718" lon="7.33253">
        <ele>430.812836</ele>
        <time>2010-06-05T14:41:03Z</time>
      </trkpt>
      <trkpt lat="48.71729" lon="7.33257">
        <ele>431.765961</ele>
        <time>2010-06-05T14:41:08Z</time>
      </trkpt>
      <trkpt lat="48.71737" lon="7.33267">
        <ele>429.695648</ele>
        <time>2010-06-05T14:41:12Z</time>
      </trkpt>
      <trkpt lat="48.71745" lon="7.33279">
        <ele>428.476898</ele>
        <time>2010-06-05T14:41:15Z</time>
      </trkpt>
      <trkpt lat="48.7175" lon="7.33293">
        <ele>426.539398</ele>
        <time>2010-06-05T14:41:18Z</time>
      </trkpt>
      <trkpt lat="48.71759" lon="7.33305">
        <ele>425.281586</ele>
        <time>2010-06-05T14:41:21Z</time>
      </trkpt>
      <trkpt lat="48.7177" lon="7.33311">
        <ele>424.070648</ele>
        <time>2010-06-05T14:41:24Z</time>
      </trkpt>
      <trkpt lat="48.71783" lon="7.33313">
        <ele>422.789398</ele>
        <time>2010-06-05T14:41:27Z</time>
      </trkpt>
      <trkpt lat="48.71791" lon="7.33321">
        <ele>421.484711</ele>
        <time>2010-06-05T14:41:30Z</time>
      </trkpt>
      <trkpt lat="48.718" lon="7.33328">
        <ele>419.265961</ele>
        <time>2010-06-05T14:41:33Z</time>
      </trkpt>
      <trkpt lat="48.71811" lon="7.33335">
        <ele>417.000336</ele>
        <time>2010-06-05T14:41:36Z</time>
      </trkpt>
      <trkpt lat="48.71819" lon="7.33342">
        <ele>414.930023</ele>
        <time>2010-06-05T14:41:39Z</time>
      </trkpt>
      <trkpt lat="48.71827" lon="7.3335">
        <ele>411.312836</ele>
        <time>2010-06-05T14:41:43Z</time>
      </trkpt>
      <trkpt lat="48.71835" lon="7.33358">
        <ele>408.976898</ele>
        <time>2010-06-05T14:41:46Z</time>
      </trkpt>
      <trkpt lat="48.71843" lon="7.33367">
        <ele>407.062836</ele>
        <time>2010-06-05T14:41:50Z</time>
      </trkpt>
      <trkpt lat="48.71852" lon="7.33371">
        <ele>405.398773</ele>
        <time>2010-06-05T14:41:53Z</time>
      </trkpt>
      <trkpt lat="48.71865" lon="7.33372">
        <ele>404.578461</ele>
        <time>2010-06-05T14:41:57Z</time>
      </trkpt>
      <trkpt lat="48.71874" lon="7.33377">
        <ele>402.492523</ele>
        <time>2010-06-05T14:42:00Z</time>
      </trkpt>
      <trkpt lat="48.71882" lon="7.33383">
        <ele>401.461273</ele>
        <time>2010-06-05T14:42:03Z</time>
      </trkpt>
      <trkpt lat="48.71893" lon="7.33384">
        <ele>401.219086</ele>
        <time>2010-06-05T14:42:07Z</time>
      </trkpt>
      <trkpt lat="48.71907" lon="7.33392">
        <ele>409.633148</ele>
        <time>2010-06-05T14:42:11Z</time>
      </trkpt>
      <trkpt lat="48.71918" lon="7.33397">
        <ele>409.570648</ele>
        <time>2010-06-05T14:42:15Z</time>
      </trkpt>
      <trkpt lat="48.71928" lon="7.33404">
        <ele>410.469086</ele>
        <time>2010-06-05T14:42:19Z</time>
      </trkpt>
      <trkpt lat="48.71936" lon="7.33411">
        <ele>412.461273</ele>
        <time>2010-06-05T14:42:26Z</time>
      </trkpt>
      <trkpt lat="48.71948" lon="7.33414">
        <ele>415.289398</ele>
        <time>2010-06-05T14:42:31Z</time>
      </trkpt>
      <trkpt lat="48.71956" lon="7.33409">
        <ele>418.515961</ele>
        <time>2010-06-05T14:42:37Z</time>
      </trkpt>
      <trkpt lat="48.71964" lon="7.33417">
        <ele>419.906586</ele>
        <time>2010-06-05T14:42:42Z</time>
      </trkpt>
      <trkpt lat="48.71975" lon="7.33423">
        <ele>420.398773</ele>
        <time>2010-06-05T14:42:45Z</time>
      </trkpt>
      <trkpt lat="48.71985" lon="7.33433">
        <ele>419.461273</ele>
        <time>2010-06-05T14:42:48Z</time>
      </trkpt>
      <trkpt lat="48.71993" lon="7.33441">
        <ele>416.773773</ele>
        <time>2010-06-05T14:42:51Z</time>
      </trkpt>
      <trkpt lat="48.72002" lon="7.33447">
        <ele>416.703461</ele>
        <time>2010-06-05T14:42:54Z</time>
      </trkpt>
      <trkpt lat="48.72011" lon="7.33458">
        <ele>416.820648</ele>
        <time>2010-06-05T14:42:57Z</time>
      </trkpt>
      <trkpt lat="48.72018" lon="7.33469">
        <ele>417.117523</ele>
        <time>2010-06-05T14:43:00Z</time>
      </trkpt>
      <trkpt lat="48.72026" lon="7.33481">
        <ele>418.469086</ele>
        <time>2010-06-05T14:43:03Z</time>
      </trkpt>
      <trkpt lat="48.72033" lon="7.33489">
        <ele>418.594086</ele>
        <time>2010-06-05T14:43:05Z</time>
      </trkpt>
      <trkpt lat="48.72041" lon="7.33498">
        <ele>418.992523</ele>
        <time>2010-06-05T14:43:07Z</time>
      </trkpt>
      <trkpt lat="48.72051" lon="7.33507">
        <ele>418.305023</ele>
        <time>2010-06-05T14:43:10Z</time>
      </trkpt>
      <trkpt lat="48.7206" lon="7.3351">
        <ele>418.164398</ele>
        <time>2010-06-05T14:43:12Z</time>
      </trkpt>
      <trkpt lat="48.72072" lon="7.33511">
        <ele>418.094086</ele>
        <time>2010-06-05T14:43:14Z</time>
      </trkpt>
      <trkpt lat="48.72083" lon="7.33516">
        <ele>417.555023</ele>
        <time>2010-06-05T14:43:17Z</time>
      </trkpt>
      <trkpt lat="48.72092" lon="7.33522">
        <ele>415.922211</ele>
        <time>2010-06-05T14:43:20Z</time>
      </trkpt>
      <trkpt lat="48.72104" lon="7.33533">
        <ele>413.773773</ele>
        <time>2010-06-05T14:43:24Z</time>
      </trkpt>
      <trkpt lat="48.72111" lon="7.33544">
        <ele>413.984711</ele>
        <time>2010-06-05T14:43:26Z</time>
      </trkpt>
      <trkpt lat="48.72118" lon="7.33554">
        <ele>415.945648</ele>
        <time>2010-06-05T14:43:28Z</time>
      </trkpt>
      <trkpt lat="48.72127" lon="7.33567">
        <ele>415.023773</ele>
        <time>2010-06-05T14:43:31Z</time>
      </trkpt>
      <trkpt lat="48.72136" lon="7.33573">
        <ele>415.117523</ele>
        <time>2010-06-05T14:43:33Z</time>
      </trkpt>
      <trkpt lat="48.72144" lon="7.33578">
        <ele>414.570648</ele>
        <time>2010-06-05T14:43:35Z</time>
      </trkpt>
      <trkpt lat="48.72152" lon="7.33585">
        <ele>414.344086</ele>
        <time>2010-06-05T14:43:37Z</time>
      </trkpt>
      <trkpt lat="48.72161" lon="7.33592">
        <ele>412.914398</ele>
        <time>2010-06-05T14:43:39Z</time>
      </trkpt>
      <trkpt lat="48.72171" lon="7.33597">
        <ele>412.672211</ele>
        <time>2010-06-05T14:43:42Z</time>
      </trkpt>
      <trkpt lat="48.72181" lon="7.33606">
        <ele>410.101898</ele>
        <time>2010-06-05T14:43:45Z</time>
      </trkpt>
      <trkpt lat="48.72192" lon="7.33611">
        <ele>413.289398</ele>
        <time>2010-06-05T14:43:47Z</time>
      </trkpt>
      <trkpt lat="48.72203" lon="7.33612">
        <ele>415.359711</ele>
        <time>2010-06-05T14:43:49Z</time>
      </trkpt>
      <trkpt lat="48.72213" lon="7.33616">
        <ele>415.617523</ele>
        <time>2010-06-05T14:43:53Z</time>
      </trkpt>
      <trkpt lat="48.72223" lon="7.33619">
        <ele>418.937836</ele>
        <time>2010-06-05T14:43:59Z</time>
      </trkpt>
      <trkpt lat="48.72232" lon="7.33619">
        <ele>422.367523</ele>
        <time>2010-06-05T14:44:03Z</time>
      </trkpt>
      <trkpt lat="48.72242" lon="7.33621">
        <ele>423.906586</ele>
        <time>2010-06-05T14:44:09Z</time>
      </trkpt>
      <trkpt lat="48.72251" lon="7.33626">
        <ele>426.656586</ele>
        <time>2010-06-05T14:44:18Z</time>
      </trkpt>
      <trkpt lat="48.72256" lon="7.33638">
        <ele>427.234711</ele>
        <time>2010-06-05T14:44:36Z</time>
      </trkpt>
      <trkpt lat="48.72264" lon="7.33646">
        <ele>426.851898</ele>
        <time>2010-06-05T14:44:42Z</time>
      </trkpt>
      <trkpt lat="48.72274" lon="7.33651">
        <ele>425.851898</ele>
        <time>2010-06-05T14:44:50Z</time>
      </trkpt>
      <trkpt lat="48.72283" lon="7.33655">
        <ele>425.531586</ele>
        <time>2010-06-05T14:44:55Z</time>
      </trkpt>
      <trkpt lat="48.72292" lon="7.3366">
        <ele>427.930023</ele>
        <time>2010-06-05T14:45:02Z</time>
      </trkpt>
      <trkpt lat="48.72306" lon="7.33666">
        <ele>429.281586</ele>
        <time>2010-06-05T14:45:18Z</time>
      </trkpt>
      <trkpt lat="48.72315" lon="7.33671">
        <ele>426.945648</ele>
        <time>2010-06-05T14:45:20Z</time>
      </trkpt>
      <trkpt lat="48.72322" lon="7.33682">
        <ele>424.640961</ele>
        <time>2010-06-05T14:45:23Z</time>
      </trkpt>
      <trkpt lat="48.72329" lon="7.33691">
        <ele>421.297211</ele>
        <time>2010-06-05T14:45:29Z</time>
      </trkpt>
      <trkpt lat="48.72334" lon="7.33705">
        <ele>422.156586</ele>
        <time>2010-06-05T14:45:34Z</time>
      </trkpt>
      <trkpt lat="48.7234" lon="7.33716">
        <ele>423.898773</ele>
        <time>2010-06-05T14:45:38Z</time>
      </trkpt>
      <trkpt lat="48.72345" lon="7.33727">
        <ele>423.914398</ele>
        <time>2010-06-05T14:45:42Z</time>
      </trkpt>
      <trkpt lat="48.7235" lon="7.33742">
        <ele>423.687836</ele>
        <time>2010-06-05T14:45:47Z</time>
      </trkpt>
      <trkpt lat="48.72357" lon="7.33754">
        <ele>422.586273</ele>
        <time>2010-06-05T14:45:53Z</time>
      </trkpt>
      <trkpt lat="48.72367" lon="7.33762">
        <ele>423.250336</ele>
        <time>2010-06-05T14:45:57Z</time>
      </trkpt>
      <trkpt lat="48.72374" lon="7.33772">
        <ele>424.234711</ele>
        <time>2010-06-05T14:46:01Z</time>
      </trkpt>
      <trkpt lat="48.72382" lon="7.33782">
        <ele>424.820648</ele>
        <time>2010-06-05T14:46:05Z</time>
      </trkpt>
      <trkpt lat="48.7239" lon="7.33789">
        <ele>425.461273</ele>
        <time>2010-06-05T14:46:08Z</time>
      </trkpt>
      <trkpt lat="48.72399" lon="7.33797">
        <ele>425.258148</ele>
        <time>2010-06-05T14:46:11Z</time>
      </trkpt>
      <trkpt lat="48.72408" lon="7.33806">
        <ele>425.586273</ele>
        <time>2010-06-05T14:46:15Z</time>
      </trkpt>
      <trkpt lat="48.72417" lon="7.33814">
        <ele>425.719086</ele>
        <time>2010-06-05T14:46:19Z</time>
      </trkpt>
      <trkpt lat="48.72424" lon="7.33822">
        <ele>425.789398</ele>
        <time>2010-06-05T14:46:23Z</time>
      </trkpt>
      <trkpt lat="48.72434" lon="7.33821">
        <ele>427.633148</ele>
        <time>2010-06-05T14:46:28Z</time>
      </trkpt>
      <trkpt lat="48.72426" lon="7.33815">
        <ele>429.328461</ele>
        <time>2010-06-05T14:46:38Z</time>
      </trkpt>
      <trkpt lat="48.72418" lon="7.33808">
        <ele>429.773773</ele>
        <time>2010-06-05T14:46:44Z</time>
      </trkpt>
      <trkpt lat="48.72414" lon="7.33795">
        <ele>429.586273</ele>
        <time>2010-06-05T14:46:50Z</time>
      </trkpt>
      <trkpt lat="48.72406" lon="7.33787">
        <ele>430.859711</ele>
        <time>2010-06-05T14:46:55Z</time>
      </trkpt>
      <trkpt lat="48.72397" lon="7.33779">
        <ele>430.867523</ele>
        <time>2010-06-05T14:47:00Z</time>
      </trkpt>
      <trkpt lat="48.7239" lon="7.33768">
        <ele>429.320648</ele>
        <time>2010-06-05T14:47:04Z</time>
      </trkpt>
      <trkpt lat="48.72381" lon="7.33763">
        <ele>428.258148</ele>
        <time>2010-06-05T14:47:08Z</time>
      </trkpt>
      <trkpt lat="48.72372" lon="7.33751">
        <ele>428.258148</ele>
        <time>2010-06-05T14:47:12Z</time>
      </trkpt>
      <trkpt lat="48.72362" lon="7.33745">
        <ele>428.625336</ele>
        <time>2010-06-05T14:47:16Z</time>
      </trkpt>
      <trkpt lat="48.72354" lon="7.33737">
        <ele>429.601898</ele>
        <time>2010-06-05T14:47:20Z</time>
      </trkpt>
      <trkpt lat="48.72347" lon="7.33727">
        <ele>430.547211</ele>
        <time>2010-06-05T14:47:27Z</time>
      </trkpt>
      <trkpt lat="48.72343" lon="7.33713">
        <ele>429.265961</ele>
        <time>2010-06-05T14:47:36Z</time>
      </trkpt>
      <trkpt lat="48.72351" lon="7.33703">
        <ele>425.539398</ele>
        <time>2010-06-05T14:47:48Z</time>
      </trkpt>
      <trkpt lat="48.72357" lon="7.33692">
        <ele>423.687836</ele>
        <time>2010-06-05T14:47:52Z</time>
      </trkpt>
      <trkpt lat="48.72364" lon="7.3368">
        <ele>421.281586</ele>
        <time>2010-06-05T14:47:57Z</time>
      </trkpt>
      <trkpt lat="48.72374" lon="7.33674">
        <ele>419.070648</ele>
        <time>2010-06-05T14:48:02Z</time>
      </trkpt>
      <trkpt lat="48.72385" lon="7.33675">
        <ele>416.187836</ele>
        <time>2010-06-05T14:48:06Z</time>
      </trkpt>
      <trkpt lat="48.72393" lon="7.33681">
        <ele>414.664398</ele>
        <time>2010-06-05T14:48:08Z</time>
      </trkpt>
      <trkpt lat="48.72403" lon="7.33687">
        <ele>412.180023</ele>
        <time>2010-06-05T14:48:11Z</time>
      </trkpt>
      <trkpt lat="48.72414" lon="7.33695">
        <ele>409.461273</ele>
        <time>2010-06-05T14:48:14Z</time>
      </trkpt>
      <trkpt lat="48.72424" lon="7.33701">
        <ele>408.086273</ele>
        <time>2010-06-05T14:48:16Z</time>
      </trkpt>
      <trkpt lat="48.72432" lon="7.33708">
        <ele>406.890961</ele>
        <time>2010-06-05T14:48:18Z</time>
      </trkpt>
      <trkpt lat="48.72441" lon="7.33719">
        <ele>405.219086</ele>
        <time>2010-06-05T14:48:21Z</time>
      </trkpt>
      <trkpt lat="48.7245" lon="7.33731">
        <ele>403.109711</ele>
        <time>2010-06-05T14:48:24Z</time>
      </trkpt>
      <trkpt lat="48.7246" lon="7.33742">
        <ele>400.648773</ele>
        <time>2010-06-05T14:48:28Z</time>
      </trkpt>
      <trkpt lat="48.72469" lon="7.33751">
        <ele>399.859711</ele>
        <time>2010-06-05T14:48:33Z</time>
      </trkpt>
      <trkpt lat="48.72477" lon="7.33759">
        <ele>398.328461</ele>
        <time>2010-06-05T14:48:38Z</time>
      </trkpt>
      <trkpt lat="48.72484" lon="7.33768">
        <ele>396.562836</ele>
        <time>2010-06-05T14:48:42Z</time>
      </trkpt>
      <trkpt lat="48.72495" lon="7.33775">
        <ele>397.945648</ele>
        <time>2010-06-05T14:48:46Z</time>
      </trkpt>
      <trkpt lat="48.72504" lon="7.33777">
        <ele>400.187836</ele>
        <time>2010-06-05T14:48:49Z</time>
      </trkpt>
      <trkpt lat="48.72511" lon="7.33785">
        <ele>399.851898</ele>
        <time>2010-06-05T14:48:55Z</time>
      </trkpt>
      <trkpt lat="48.72519" lon="7.33794">
        <ele>399.937836</ele>
        <time>2010-06-05T14:48:59Z</time>
      </trkpt>
      <trkpt lat="48.72528" lon="7.338">
        <ele>400.445648</ele>
        <time>2010-06-05T14:49:02Z</time>
      </trkpt>
      <trkpt lat="48.72537" lon="7.33807">
        <ele>399.680023</ele>
        <time>2010-06-05T14:49:05Z</time>
      </trkpt>
      <trkpt lat="48.72544" lon="7.33822">
        <ele>399.992523</ele>
        <time>2010-06-05T14:49:09Z</time>
      </trkpt>
      <trkpt lat="48.72551" lon="7.33838">
        <ele>398.133148</ele>
        <time>2010-06-05T14:49:12Z</time>
      </trkpt>
      <trkpt lat="48.7256" lon="7.33853">
        <ele>397.203461</ele>
        <time>2010-06-05T14:49:14Z</time>
      </trkpt>
      <trkpt lat="48.7257" lon="7.33868">
        <ele>396.226898</ele>
        <time>2010-06-05T14:49:16Z</time>
      </trkpt>
      <trkpt lat="48.7258" lon="7.33883">
        <ele>394.953461</ele>
        <time>2010-06-05T14:49:18Z</time>
      </trkpt>
      <trkpt lat="48.72583" lon="7.33896">
        <ele>393.797211</ele>
        <time>2010-06-05T14:49:20Z</time>
      </trkpt>
      <trkpt lat="48.72589" lon="7.3391">
        <ele>393.422211</ele>
        <time>2010-06-05T14:49:22Z</time>
      </trkpt>
      <trkpt lat="48.72596" lon="7.33918">
        <ele>392.164398</ele>
        <time>2010-06-05T14:49:24Z</time>
      </trkpt>
      <trkpt lat="48.72605" lon="7.33928">
        <ele>390.156586</ele>
        <time>2010-06-05T14:49:44Z</time>
      </trkpt>
      <trkpt lat="48.72621" lon="7.3394">
        <ele>390.453461</ele>
        <time>2010-06-05T14:49:47Z</time>
      </trkpt>
      <trkpt lat="48.72632" lon="7.33946">
        <ele>390.680023</ele>
        <time>2010-06-05T14:49:49Z</time>
      </trkpt>
      <trkpt lat="48.72644" lon="7.33952">
        <ele>390.703461</ele>
        <time>2010-06-05T14:49:51Z</time>
      </trkpt>
      <trkpt lat="48.72657" lon="7.33957">
        <ele>391.070648</ele>
        <time>2010-06-05T14:49:54Z</time>
      </trkpt>
      <trkpt lat="48.72667" lon="7.33965">
        <ele>391.281586</ele>
        <time>2010-06-05T14:49:57Z</time>
      </trkpt>
      <trkpt lat="48.72673" lon="7.33976">
        <ele>391.258148</ele>
        <time>2010-06-05T14:49:59Z</time>
      </trkpt>
      <trkpt lat="48.7268" lon="7.33996">
        <ele>390.594086</ele>
        <time>2010-06-05T14:50:01Z</time>
      </trkpt>
      <trkpt lat="48.7269" lon="7.34018">
        <ele>390.172211</ele>
        <time>2010-06-05T14:50:03Z</time>
      </trkpt>
      <trkpt lat="48.72697" lon="7.34035">
        <ele>389.851898</ele>
        <time>2010-06-05T14:50:05Z</time>
      </trkpt>
      <trkpt lat="48.72703" lon="7.34049">
        <ele>389.648773</ele>
        <time>2010-06-05T14:50:07Z</time>
      </trkpt>
      <trkpt lat="48.72709" lon="7.3406">
        <ele>389.515961</ele>
        <time>2010-06-05T14:50:09Z</time>
      </trkpt>
      <trkpt lat="48.72715" lon="7.3407">
        <ele>389.312836</ele>
        <time>2010-06-05T14:50:11Z</time>
      </trkpt>
      <trkpt lat="48.72721" lon="7.34082">
        <ele>389.078461</ele>
        <time>2010-06-05T14:50:13Z</time>
      </trkpt>
      <trkpt lat="48.72728" lon="7.34096">
        <ele>388.539398</ele>
        <time>2010-06-05T14:50:16Z</time>
      </trkpt>
      <trkpt lat="48.72735" lon="7.3411">
        <ele>388.055023</ele>
        <time>2010-06-05T14:50:20Z</time>
      </trkpt>
      <trkpt lat="48.72744" lon="7.34115">
        <ele>387.562836</ele>
        <time>2010-06-05T14:50:25Z</time>
      </trkpt>
      <trkpt lat="48.72752" lon="7.34125">
        <ele>386.594086</ele>
        <time>2010-06-05T14:50:32Z</time>
      </trkpt>
      <trkpt lat="48.72761" lon="7.34133">
        <ele>386.000336</ele>
        <time>2010-06-05T14:50:37Z</time>
      </trkpt>
      <trkpt lat="48.72769" lon="7.34144">
        <ele>385.555023</ele>
        <time>2010-06-05T14:50:41Z</time>
      </trkpt>
      <trkpt lat="48.72777" lon="7.34154">
        <ele>385.031586</ele>
        <time>2010-06-05T14:50:45Z</time>
      </trkpt>
      <trkpt lat="48.72787" lon="7.3416">
        <ele>384.867523</ele>
        <time>2010-06-05T14:50:50Z</time>
      </trkpt>
      <trkpt lat="48.72796" lon="7.34171">
        <ele>384.773773</ele>
        <time>2010-06-05T14:50:55Z</time>
      </trkpt>
      <trkpt lat="48.72802" lon="7.34181">
        <ele>384.648773</ele>
        <time>2010-06-05T14:50:58Z</time>
      </trkpt>
      <trkpt lat="48.7281" lon="7.34193">
        <ele>384.289398</ele>
        <time>2010-06-05T14:51:02Z</time>
      </trkpt>
      <trkpt lat="48.72818" lon="7.34202">
        <ele>382.820648</ele>
        <time>2010-06-05T14:51:06Z</time>
      </trkpt>
      <trkpt lat="48.72826" lon="7.34212">
        <ele>382.148773</ele>
        <time>2010-06-05T14:51:09Z</time>
      </trkpt>
      <trkpt lat="48.72835" lon="7.34221">
        <ele>381.719086</ele>
        <time>2010-06-05T14:51:13Z</time>
      </trkpt>
      <trkpt lat="48.72843" lon="7.34228">
        <ele>381.633148</ele>
        <time>2010-06-05T14:51:15Z</time>
      </trkpt>
      <trkpt lat="48.7285" lon="7.34237">
        <ele>381.000336</ele>
        <time>2010-06-05T14:51:18Z</time>
      </trkpt>
      <trkpt lat="48.72858" lon="7.34246">
        <ele>379.984711</ele>
        <time>2010-06-05T14:51:22Z</time>
      </trkpt>
      <trkpt lat="48.72866" lon="7.34252">
        <ele>380.148773</ele>
        <time>2010-06-05T14:51:25Z</time>
      </trkpt>
      <trkpt lat="48.72878" lon="7.3426">
        <ele>380.351898</ele>
        <time>2010-06-05T14:51:29Z</time>
      </trkpt>
      <trkpt lat="48.72889" lon="7.34265">
        <ele>381.906586</ele>
        <time>2010-06-05T14:51:32Z</time>
      </trkpt>
      <trkpt lat="48.72899" lon="7.3427">
        <ele>382.226898</ele>
        <time>2010-06-05T14:51:36Z</time>
      </trkpt>
      <trkpt lat="48.72907" lon="7.3428">
        <ele>382.609711</ele>
        <time>2010-06-05T14:51:41Z</time>
      </trkpt>
      <trkpt lat="48.72915" lon="7.34288">
        <ele>381.969086</ele>
        <time>2010-06-05T14:51:45Z</time>
      </trkpt>
      <trkpt lat="48.72924" lon="7.34297">
        <ele>382.000336</ele>
        <time>2010-06-05T14:51:50Z</time>
      </trkpt>
      <trkpt lat="48.72928" lon="7.34309">
        <ele>377.250336</ele>
        <time>2010-06-05T14:51:55Z</time>
      </trkpt>
      <trkpt lat="48.72927" lon="7.34321">
        <ele>373.008148</ele>
        <time>2010-06-05T14:52:03Z</time>
      </trkpt>
      <trkpt lat="48.72933" lon="7.34331">
        <ele>372.461273</ele>
        <time>2010-06-05T14:53:14Z</time>
      </trkpt>
      <trkpt lat="48.7294" lon="7.3434">
        <ele>371.219086</ele>
        <time>2010-06-05T14:53:46Z</time>
      </trkpt>
      <trkpt lat="48.72952" lon="7.34339">
        <ele>368.601898</ele>
        <time>2010-06-05T14:53:51Z</time>
      </trkpt>
      <trkpt lat="48.72963" lon="7.34341">
        <ele>366.234711</ele>
        <time>2010-06-05T14:53:55Z</time>
      </trkpt>
      <trkpt lat="48.72974" lon="7.34345">
        <ele>365.594086</ele>
        <time>2010-06-05T14:53:58Z</time>
      </trkpt>
      <trkpt lat="48.72984" lon="7.34347">
        <ele>365.953461</ele>
        <time>2010-06-05T14:54:00Z</time>
      </trkpt>
      <trkpt lat="48.72997" lon="7.3435">
        <ele>367.914398</ele>
        <time>2010-06-05T14:54:03Z</time>
      </trkpt>
      <trkpt lat="48.73011" lon="7.34358">
        <ele>369.945648</ele>
        <time>2010-06-05T14:54:06Z</time>
      </trkpt>
      <trkpt lat="48.73023" lon="7.34366">
        <ele>370.859711</ele>
        <time>2010-06-05T14:54:09Z</time>
      </trkpt>
      <trkpt lat="48.73032" lon="7.34374">
        <ele>372.367523</ele>
        <time>2010-06-05T14:54:11Z</time>
      </trkpt>
      <trkpt lat="48.7304" lon="7.3438">
        <ele>373.680023</ele>
        <time>2010-06-05T14:54:13Z</time>
      </trkpt>
      <trkpt lat="48.73048" lon="7.34388">
        <ele>375.187836</ele>
        <time>2010-06-05T14:54:16Z</time>
      </trkpt>
      <trkpt lat="48.73057" lon="7.34398">
        <ele>376.015961</ele>
        <time>2010-06-05T14:54:19Z</time>
      </trkpt>
      <trkpt lat="48.73069" lon="7.34405">
        <ele>375.750336</ele>
        <time>2010-06-05T14:54:22Z</time>
      </trkpt>
      <trkpt lat="48.73077" lon="7.34412">
        <ele>374.476898</ele>
        <time>2010-06-05T14:54:24Z</time>
      </trkpt>
      <trkpt lat="48.73089" lon="7.34422">
        <ele>372.211273</ele>
        <time>2010-06-05T14:54:27Z</time>
      </trkpt>
      <trkpt lat="48.73097" lon="7.34429">
        <ele>372.148773</ele>
        <time>2010-06-05T14:54:30Z</time>
      </trkpt>
      <trkpt lat="48.73105" lon="7.34436">
        <ele>367.765961</ele>
        <time>2010-06-05T14:54:32Z</time>
      </trkpt>
      <trkpt lat="48.73116" lon="7.34449">
        <ele>362.219086</ele>
        <time>2010-06-05T14:54:35Z</time>
      </trkpt>
      <trkpt lat="48.73121" lon="7.3446">
        <ele>356.570648</ele>
        <time>2010-06-05T14:54:38Z</time>
      </trkpt>
      <trkpt lat="48.73125" lon="7.34473">
        <ele>351.172211</ele>
        <time>2010-06-05T14:54:42Z</time>
      </trkpt>
      <trkpt lat="48.7313" lon="7.34483">
        <ele>346.390961</ele>
        <time>2010-06-05T14:54:46Z</time>
      </trkpt>
      <trkpt lat="48.73137" lon="7.34496">
        <ele>340.969086</ele>
        <time>2010-06-05T14:54:50Z</time>
      </trkpt>
      <trkpt lat="48.73141" lon="7.34506">
        <ele>335.906586</ele>
        <time>2010-06-05T14:54:56Z</time>
      </trkpt>
      <trkpt lat="48.73146" lon="7.34518">
        <ele>334.430023</ele>
        <time>2010-06-05T14:55:30Z</time>
      </trkpt>
      <trkpt lat="48.73152" lon="7.34534">
        <ele>331.594086</ele>
        <time>2010-06-05T14:55:33Z</time>
      </trkpt>
      <trkpt lat="48.73157" lon="7.34548">
        <ele>326.594086</ele>
        <time>2010-06-05T14:55:36Z</time>
      </trkpt>
      <trkpt lat="48.73164" lon="7.34558">
        <ele>324.937836</ele>
        <time>2010-06-05T14:55:41Z</time>
      </trkpt>
      <trkpt lat="48.7317" lon="7.34571">
        <ele>321.859711</ele>
        <time>2010-06-05T14:55:45Z</time>
      </trkpt>
      <trkpt lat="48.73176" lon="7.34584">
        <ele>319.578461</ele>
        <time>2010-06-05T14:55:49Z</time>
      </trkpt>
      <trkpt lat="48.73183" lon="7.34596">
        <ele>318.844086</ele>
        <time>2010-06-05T14:55:52Z</time>
      </trkpt>
      <trkpt lat="48.73192" lon="7.34602">
        <ele>319.859711</ele>
        <time>2010-06-05T14:55:55Z</time>
      </trkpt>
      <trkpt lat="48.73199" lon="7.34609">
        <ele>315.703461</ele>
        <time>2010-06-05T14:55:58Z</time>
      </trkpt>
      <trkpt lat="48.73207" lon="7.34615">
        <ele>313.922211</ele>
        <time>2010-06-05T14:56:01Z</time>
      </trkpt>
      <trkpt lat="48.73217" lon="7.34624">
        <ele>312.328461</ele>
        <time>2010-06-05T14:56:05Z</time>
      </trkpt>
      <trkpt lat="48.73225" lon="7.3463">
        <ele>311.359711</ele>
        <time>2010-06-05T14:56:09Z</time>
      </trkpt>
      <trkpt lat="48.73237" lon="7.34634">
        <ele>310.109711</ele>
        <time>2010-06-05T14:56:14Z</time>
      </trkpt>
      <trkpt lat="48.73248" lon="7.34638">
        <ele>309.687836</ele>
        <time>2010-06-05T14:56:18Z</time>
      </trkpt>
      <trkpt lat="48.73259" lon="7.34646">
        <ele>309.172211</ele>
        <time>2010-06-05T14:56:22Z</time>
      </trkpt>
      <trkpt lat="48.73268" lon="7.34652">
        <ele>308.594086</ele>
        <time>2010-06-05T14:56:25Z</time>
      </trkpt>
      <trkpt lat="48.73277" lon="7.34664">
        <ele>306.844086</ele>
        <time>2010-06-05T14:56:28Z</time>
      </trkpt>
      <trkpt lat="48.73283" lon="7.34674">
        <ele>306.828461</ele>
        <time>2010-06-05T14:56:31Z</time>
      </trkpt>
      <trkpt lat="48.73293" lon="7.34681">
        <ele>306.664398</ele>
        <time>2010-06-05T14:56:35Z</time>
      </trkpt>
      <trkpt lat="48.73301" lon="7.34691">
        <ele>307.148773</ele>
        <time>2010-06-05T14:56:39Z</time>
      </trkpt>
      <trkpt lat="48.73307" lon="7.34701">
        <ele>307.133148</ele>
        <time>2010-06-05T14:56:43Z</time>
      </trkpt>
      <trkpt lat="48.73318" lon="7.34703">
        <ele>308.211273</ele>
        <time>2010-06-05T14:56:46Z</time>
      </trkpt>
      <trkpt lat="48.7333" lon="7.34709">
        <ele>310.609711</ele>
        <time>2010-06-05T14:56:49Z</time>
      </trkpt>
      <trkpt lat="48.73337" lon="7.34721">
        <ele>311.937836</ele>
        <time>2010-06-05T14:56:52Z</time>
      </trkpt>
      <trkpt lat="48.7334" lon="7.34736">
        <ele>313.851898</ele>
        <time>2010-06-05T14:56:56Z</time>
      </trkpt>
      <trkpt lat="48.73345" lon="7.34748">
        <ele>315.234711</ele>
        <time>2010-06-05T14:56:59Z</time>
      </trkpt>
      <trkpt lat="48.7335" lon="7.3476">
        <ele>315.430023</ele>
        <time>2010-06-05T14:57:03Z</time>
      </trkpt>
      <trkpt lat="48.73351" lon="7.34774">
        <ele>315.164398</ele>
        <time>2010-06-05T14:57:08Z</time>
      </trkpt>
      <trkpt lat="48.73353" lon="7.34789">
        <ele>316.594086</ele>
        <time>2010-06-05T14:57:14Z</time>
      </trkpt>
      <trkpt lat="48.73357" lon="7.34803">
        <ele>319.961273</ele>
        <time>2010-06-05T14:57:24Z</time>
      </trkpt>
      <trkpt lat="48.73357" lon="7.34817">
        <ele>318.797211</ele>
        <time>2010-06-05T14:57:36Z</time>
      </trkpt>
      <trkpt lat="48.7335" lon="7.3483">
        <ele>315.445648</ele>
        <time>2010-06-05T14:58:19Z</time>
      </trkpt>
      <trkpt lat="48.73354" lon="7.34844">
        <ele>315.148773</ele>
        <time>2010-06-05T14:58:26Z</time>
      </trkpt>
      <trkpt lat="48.73361" lon="7.34853">
        <ele>314.242523</ele>
        <time>2010-06-05T14:58:29Z</time>
      </trkpt>
      <trkpt lat="48.73359" lon="7.3487">
        <ele>313.687836</ele>
        <time>2010-06-05T14:58:34Z</time>
      </trkpt>
      <trkpt lat="48.73356" lon="7.34886">
        <ele>313.195648</ele>
        <time>2010-06-05T14:58:37Z</time>
      </trkpt>
      <trkpt lat="48.73352" lon="7.34899">
        <ele>312.562836</ele>
        <time>2010-06-05T14:58:39Z</time>
      </trkpt>
      <trkpt lat="48.73346" lon="7.3491">
        <ele>312.094086</ele>
        <time>2010-06-05T14:58:41Z</time>
      </trkpt>
      <trkpt lat="48.73336" lon="7.3492">
        <ele>311.687836</ele>
        <time>2010-06-05T14:58:43Z</time>
      </trkpt>
      <trkpt lat="48.73329" lon="7.34934">
        <ele>310.758148</ele>
        <time>2010-06-05T14:58:45Z</time>
      </trkpt>
      <trkpt lat="48.73322" lon="7.34944">
        <ele>308.875336</ele>
        <time>2010-06-05T14:58:49Z</time>
      </trkpt>
      <trkpt lat="48.73318" lon="7.34958">
        <ele>307.640961</ele>
        <time>2010-06-05T14:58:52Z</time>
      </trkpt>
      <trkpt lat="48.73311" lon="7.34966">
        <ele>306.109711</ele>
        <time>2010-06-05T14:58:55Z</time>
      </trkpt>
      <trkpt lat="48.73303" lon="7.34977">
        <ele>304.859711</ele>
        <time>2010-06-05T14:58:58Z</time>
      </trkpt>
      <trkpt lat="48.73294" lon="7.34994">
        <ele>302.961273</ele>
        <time>2010-06-05T14:59:01Z</time>
      </trkpt>
      <trkpt lat="48.73287" lon="7.35006">
        <ele>301.594086</ele>
        <time>2010-06-05T14:59:03Z</time>
      </trkpt>
      <trkpt lat="48.73274" lon="7.35014">
        <ele>301.437836</ele>
        <time>2010-06-05T14:59:05Z</time>
      </trkpt>
      <trkpt lat="48.73276" lon="7.35031">
        <ele>299.601898</ele>
        <time>2010-06-05T14:59:07Z</time>
      </trkpt>
      <trkpt lat="48.73277" lon="7.35047">
        <ele>297.515961</ele>
        <time>2010-06-05T14:59:09Z</time>
      </trkpt>
      <trkpt lat="48.73273" lon="7.35065">
        <ele>295.695648</ele>
        <time>2010-06-05T14:59:11Z</time>
      </trkpt>
      <trkpt lat="48.7327" lon="7.35078">
        <ele>293.976898</ele>
        <time>2010-06-05T14:59:13Z</time>
      </trkpt>
      <trkpt lat="48.73266" lon="7.35095">
        <ele>291.344086</ele>
        <time>2010-06-05T14:59:16Z</time>
      </trkpt>
      <trkpt lat="48.73261" lon="7.35111">
        <ele>289.133148</ele>
        <time>2010-06-05T14:59:19Z</time>
      </trkpt>
      <trkpt lat="48.73255" lon="7.35124">
        <ele>286.492523</ele>
        <time>2010-06-05T14:59:23Z</time>
      </trkpt>
      <trkpt lat="48.73246" lon="7.35129">
        <ele>277.789398</ele>
        <time>2010-06-05T14:59:26Z</time>
      </trkpt>
      <trkpt lat="48.73237" lon="7.35135">
        <ele>275.140961</ele>
        <time>2010-06-05T14:59:29Z</time>
      </trkpt>
      <trkpt lat="48.73229" lon="7.35138">
        <ele>268.828461</ele>
        <time>2010-06-05T14:59:58Z</time>
      </trkpt>
      <trkpt lat="48.73219" lon="7.35128">
        <ele>265.383148</ele>
        <time>2010-06-05T15:00:02Z</time>
      </trkpt>
      <trkpt lat="48.73209" lon="7.3512">
        <ele>263.289398</ele>
        <time>2010-06-05T15:00:05Z</time>
      </trkpt>
      <trkpt lat="48.732" lon="7.35114">
        <ele>263.055023</ele>
        <time>2010-06-05T15:00:08Z</time>
      </trkpt>
      <trkpt lat="48.73192" lon="7.35108">
        <ele>262.328461</ele>
        <time>2010-06-05T15:00:11Z</time>
      </trkpt>
      <trkpt lat="48.73181" lon="7.35108">
        <ele>261.281586</ele>
        <time>2010-06-05T15:00:15Z</time>
      </trkpt>
      <trkpt lat="48.73174" lon="7.35119">
        <ele>259.031586</ele>
        <time>2010-06-05T15:00:18Z</time>
      </trkpt>
      <trkpt lat="48.73168" lon="7.35136">
        <ele>257.094086</ele>
        <time>2010-06-05T15:00:21Z</time>
      </trkpt>
      <trkpt lat="48.73164" lon="7.35149">
        <ele>255.605637</ele>
        <time>2010-06-05T15:00:23Z</time>
      </trkpt>
      <trkpt lat="48.73161" lon="7.35164">
        <ele>254.234543</ele>
        <time>2010-06-05T15:00:25Z</time>
      </trkpt>
      <trkpt lat="48.73158" lon="7.35176">
        <ele>250.031418</ele>
        <time>2010-06-05T15:00:27Z</time>
      </trkpt>
      <trkpt lat="48.73153" lon="7.35187">
        <ele>246.88298</ele>
        <time>2010-06-05T15:00:28Z</time>
      </trkpt>
      <trkpt lat="48.73144" lon="7.35194">
        <ele>244.554855</ele>
        <time>2010-06-05T15:00:30Z</time>
      </trkpt>
      <trkpt lat="48.73135" lon="7.35199">
        <ele>243.07048</ele>
        <time>2010-06-05T15:00:33Z</time>
      </trkpt>
    </trkseg>
  </trk>
</gpx>